Observation data for Hobbs on 03/22/2019      Previous  Date  Next       Current Mesonet Observations  Soil Data  Daily Summary Page  Observations in Plain Language
KHO1 220500Z 14010KT 13/07 A3016 RMK A01 T01250066  RH  068%=      5-min Rain = 0
KHO1 220501Z 13011KT 13/07 A3016 RMK A01 T01250066  RH  067%=      5-min Rain = 0
KHO1 220502Z 14009KT 13/07 A3016 RMK A01 T01250066  RH  068%=      5-min Rain = 0
KHO1 220503Z 13010KT 13/07 A3016 RMK A01 T01250066  RH  067%=      5-min Rain = 0
KHO1 220504Z 13010G15KT 13/07 A3016 RMK A01 T01250066  RH  067%=      5-min Rain = 0
KHO1 220505Z 13010KT 13/07 A3016 RMK A01 T01250066  RH  067%=      5-min Rain = 0
KHO1 220506Z 13010KT 13/07 A3016 RMK A01 T01250066  RH  067%=      5-min Rain = 0
KHO1 220507Z 13009KT 12/07 A3016 RMK A01 T01240066  RH  068%=      5-min Rain = 0
KHO1 220508Z 13010KT 12/07 A3017 RMK A01 T01240066  RH  068%=      5-min Rain = 0
KHO1 220509Z 13008KT 12/07 A3017 RMK A01 T01230066  RH  068%=      5-min Rain = 0
KHO1 220510Z 14008KT 12/07 A3017 RMK A01 T01220066  RH  068%=      5-min Rain = 0
KHO1 220511Z 13009KT 12/07 A3017 RMK A01 T01220066  RH  069%=      5-min Rain = 0
KHO1 220512Z 14009KT 12/07 A3017 RMK A01 T01220066  RH  069%=      5-min Rain = 0
KHO1 220513Z 14009KT 12/07 A3017 RMK A01 T01230066  RH  068%=      5-min Rain = 0
KHO1 220514Z 14009KT 12/07 A3017 RMK A01 T01220066  RH  068%=      5-min Rain = 0
KHO1 220515Z 14009KT 12/07 A3017 RMK A01 T01220066  RH  069%=      5-min Rain = 0
KHO1 220516Z 14010KT 12/07 A3016 RMK A01 T01220066  RH  069%=      5-min Rain = 0
KHO1 220517Z 14010KT 12/07 A3016 RMK A01 T01220066  RH  069%=      5-min Rain = 0
KHO1 220518Z 13009KT 12/07 A3016 RMK A01 T01220066  RH  069%=      5-min Rain = 0
KHO1 220519Z 14009KT 12/07 A3016 RMK A01 T01210066  RH  069%=      5-min Rain = 0
KHO1 220520Z 14010KT 12/07 A3016 RMK A01 T01220066  RH  069%=      5-min Rain = 0
KHO1 220521Z 14011KT 12/07 A3016 RMK A01 T01220067  RH  069%=      5-min Rain = 0
KHO1 220522Z 14009KT 12/07 A3016 RMK A01 T01220066  RH  069%=      5-min Rain = 0
KHO1 220523Z 14010KT 12/07 A3016 RMK A01 T01210066  RH  069%=      5-min Rain = 0
KHO1 220524Z 14010KT 12/07 A3016 RMK A01 T01210066  RH  069%=      5-min Rain = 0
KHO1 220525Z 14009KT 12/07 A3016 RMK A01 T01210066  RH  069%=      5-min Rain = 0
KHO1 220526Z 14010KT 12/07 A3016 RMK A01 T01210067  RH  069%=      5-min Rain = 0
KHO1 220527Z 14010KT 12/07 A3016 RMK A01 T01210067  RH  069%=      5-min Rain = 0
KHO1 220528Z 14010KT 12/07 A3016 RMK A01 T01210067  RH  069%=      5-min Rain = 0
KHO1 220529Z 14010KT 12/07 A3016 RMK A01 T01210067  RH  069%=      5-min Rain = 0
KHO1 220530Z 14009KT 12/07 A3016 RMK A01 T01210067  RH  069%=      5-min Rain = 0
KHO1 220531Z 14009KT 12/07 A3016 RMK A01 T01200066  RH  069%=      5-min Rain = 0
KHO1 220532Z 14010KT 12/07 A3016 RMK A01 T01200067  RH  070%=      5-min Rain = 0
KHO1 220533Z 14009KT 12/07 A3017 RMK A01 T01210067  RH  070%=      5-min Rain = 0
KHO1 220534Z 14008KT 12/07 A3017 RMK A01 T01200066  RH  070%=      5-min Rain = 0
KHO1 220535Z 14009KT 12/07 A3017 RMK A01 T01200066  RH  070%=      5-min Rain = 0
KHO1 220536Z 14008KT 12/07 A3017 RMK A01 T01190066  RH  070%=      5-min Rain = 0
KHO1 220537Z 13010KT 12/07 A3017 RMK A01 T01190067  RH  070%=      5-min Rain = 0
KHO1 220538Z 14009KT 12/07 A3017 RMK A01 T01190067  RH  070%=      5-min Rain = 0
KHO1 220539Z 14010KT 12/07 A3017 RMK A01 T01200067  RH  070%=      5-min Rain = 0
KHO1 220540Z 14009KT 12/07 A3017 RMK A01 T01200067  RH  070%=      5-min Rain = 0
KHO1 220541Z 14010KT 12/07 A3017 RMK A01 T01210067  RH  070%=      5-min Rain = 0
KHO1 220542Z 14009KT 12/07 A3017 RMK A01 T01210067  RH  070%=      5-min Rain = 0
KHO1 220543Z 14009KT 12/07 A3017 RMK A01 T01210067  RH  070%=      5-min Rain = 0
KHO1 220544Z 14009KT 12/07 A3017 RMK A01 T01200067  RH  070%=      5-min Rain = 0
KHO1 220545Z 14008KT 12/07 A3017 RMK A01 T01210067  RH  070%=      5-min Rain = 0
KHO1 220546Z 14009KT 12/07 A3017 RMK A01 T01210068  RH  070%=      5-min Rain = 0
KHO1 220547Z 14009KT 12/07 A3016 RMK A01 T01210068  RH  070%=      5-min Rain = 0
KHO1 220548Z 14010KT 12/07 A3016 RMK A01 T01210068  RH  070%=      5-min Rain = 0
KHO1 220549Z 14009KT 12/07 A3016 RMK A01 T01220068  RH  069%=      5-min Rain = 0
KHO1 220550Z 14009KT 12/07 A3016 RMK A01 T01220068  RH  070%=      5-min Rain = 0
KHO1 220551Z 15010KT 12/07 A3016 RMK A01 T01210068  RH  070%=      5-min Rain = 0
KHO1 220552Z 15009KT 12/07 A3016 RMK A01 T01210068  RH  070%=      5-min Rain = 0
KHO1 220553Z 14010KT 12/07 A3016 RMK A01 T01210068  RH  070%=      5-min Rain = 0
KHO1 220554Z 14009KT 12/07 A3016 RMK A01 T01220068  RH  070%=      5-min Rain = 0
KHO1 220555Z 14010KT 12/07 A3016 RMK A01 T01210068  RH  070%=      5-min Rain = 0
KHO1 220556Z 14012KT 12/07 A3016 RMK A01 T01220068  RH  070%=      5-min Rain = 0
KHO1 220557Z 14011KT 12/07 A3016 RMK A01 T01230068  RH  069%=      5-min Rain = 0
KHO1 220558Z 14010KT 12/07 A3016 RMK A01 T01230068  RH  069%=      5-min Rain = 0
KHO1 220559Z 14012KT 12/07 A3016 RMK A01 T01220068  RH  070%=      5-min Rain = 0
KHO1 220600Z 14013KT 12/07 A3016 RMK A01 T01230069  RH  069%=      5-min Rain = 0
KHO1 220601Z 14012KT 12/07 A3016 RMK A01 T01240069  RH  069%=      5-min Rain = 0
KHO1 220602Z 14011KT 12/07 A3016 RMK A01 T01230068  RH  069%=      5-min Rain = 0
KHO1 220603Z 14012KT 12/07 A3016 RMK A01 T01230069  RH  069%=      5-min Rain = 0
KHO1 220604Z 14011KT 12/07 A3016 RMK A01 T01230069  RH  069%=      5-min Rain = 0
KHO1 220605Z 14012KT 12/07 A3016 RMK A01 T01230069  RH  070%=      5-min Rain = 0
KHO1 220606Z 14010KT 12/07 A3016 RMK A01 T01230069  RH  069%=      5-min Rain = 0
KHO1 220607Z 14010KT 12/07 A3016 RMK A01 T01220068  RH  070%=      5-min Rain = 0
KHO1 220608Z 14009KT 12/07 A3016 RMK A01 T01210068  RH  070%=      5-min Rain = 0
KHO1 220609Z 14010KT 12/07 A3016 RMK A01 T01200068  RH  070%=      5-min Rain = 0
KHO1 220610Z 14011KT 12/07 A3016 RMK A01 T01200068  RH  070%=      5-min Rain = 0
KHO1 220611Z 14010KT 12/07 A3016 RMK A01 T01200068  RH  071%=      5-min Rain = 0
KHO1 220612Z 14010KT 12/07 A3016 RMK A01 T01200068  RH  071%=      5-min Rain = 0
KHO1 220613Z 14010KT 12/07 A3016 RMK A01 T01190068  RH  071%=      5-min Rain = 0
KHO1 220614Z 14009KT 12/07 A3016 RMK A01 T01190068  RH  071%=      5-min Rain = 0
KHO1 220615Z 14010KT 12/07 A3016 RMK A01 T01190068  RH  071%=      5-min Rain = 0
KHO1 220616Z 14011KT 12/07 A3016 RMK A01 T01190068  RH  071%=      5-min Rain = 0
KHO1 220617Z 14011KT 12/07 A3016 RMK A01 T01190068  RH  071%=      5-min Rain = 0
KHO1 220618Z 15012KT 12/07 A3016 RMK A01 T01190068  RH  071%=      5-min Rain = 0
KHO1 220619Z 15012KT 12/07 A3016 RMK A01 T01190068  RH  071%=      5-min Rain = 0
KHO1 220620Z 14011KT 12/07 A3016 RMK A01 T01190068  RH  071%=      5-min Rain = 0
KHO1 220621Z 14012KT 12/07 A3016 RMK A01 T01190068  RH  071%=      5-min Rain = 0
KHO1 220622Z 14012KT 12/07 A3016 RMK A01 T01190068  RH  071%=      5-min Rain = 0
KHO1 220623Z 14009KT 12/07 A3016 RMK A01 T01180067  RH  071%=      5-min Rain = 0
KHO1 220624Z 14011KT 12/07 A3016 RMK A01 T01180068  RH  071%=      5-min Rain = 0
KHO1 220625Z 14012KT 12/07 A3016 RMK A01 T01180068  RH  071%=      5-min Rain = 0
KHO1 220626Z 14010KT 12/07 A3016 RMK A01 T01180068  RH  071%=      5-min Rain = 0
KHO1 220627Z 14009KT 12/07 A3016 RMK A01 T01170068  RH  072%=      5-min Rain = 0
KHO1 220628Z 14009KT 12/07 A3016 RMK A01 T01160067  RH  072%=      5-min Rain = 0
KHO1 220629Z 14008KT 12/07 A3016 RMK A01 T01160067  RH  072%=      5-min Rain = 0
KHO1 220630Z 14010KT 12/07 A3016 RMK A01 T01150067  RH  072%=      5-min Rain = 0
KHO1 220631Z 14010KT 12/07 A3016 RMK A01 T01150068  RH  073%=      5-min Rain = 0
KHO1 220632Z 14009KT 12/07 A3016 RMK A01 T01150067  RH  073%=      5-min Rain = 0
KHO1 220633Z 14011KT 12/07 A3016 RMK A01 T01150068  RH  073%=      5-min Rain = 0
KHO1 220634Z 14010KT 12/07 A3016 RMK A01 T01150068  RH  072%=      5-min Rain = 0
KHO1 220635Z 14008KT 12/07 A3016 RMK A01 T01150067  RH  073%=      5-min Rain = 0
KHO1 220636Z 14010KT 11/07 A3016 RMK A01 T01140068  RH  073%=      5-min Rain = 0
KHO1 220637Z 14009KT 12/07 A3016 RMK A01 T01150068  RH  073%=      5-min Rain = 0
KHO1 220638Z 14010KT 11/07 A3016 RMK A01 T01140067  RH  073%=      5-min Rain = 0
KHO1 220639Z 14009KT 11/07 A3016 RMK A01 T01140067  RH  073%=      5-min Rain = 0
KHO1 220640Z 14008KT 11/07 A3016 RMK A01 T01130067  RH  073%=      5-min Rain = 0
KHO1 220641Z 14009KT 11/07 A3016 RMK A01 T01130067  RH  074%=      5-min Rain = 0
KHO1 220642Z 14009KT 11/07 A3015 RMK A01 T01130068  RH  074%=      5-min Rain = 0
KHO1 220643Z 14010KT 11/07 A3015 RMK A01 T01130068  RH  074%=      5-min Rain = 0
KHO1 220644Z 14010KT 11/07 A3015 RMK A01 T01130068  RH  074%=      5-min Rain = 0
KHO1 220645Z 14010KT 11/07 A3015 RMK A01 T01130068  RH  074%=      5-min Rain = 0
KHO1 220646Z 14010KT 11/07 A3015 RMK A01 T01140069  RH  074%=      5-min Rain = 0
KHO1 220647Z 14010KT 11/07 A3015 RMK A01 T01140068  RH  073%=      5-min Rain = 0
KHO1 220648Z 14009KT 11/07 A3015 RMK A01 T01140068  RH  073%=      5-min Rain = 0
KHO1 220649Z 14008KT 11/07 A3015 RMK A01 T01140068  RH  074%=      5-min Rain = 0
KHO1 220650Z 14010KT 11/07 A3015 RMK A01 T01130068  RH  074%=      5-min Rain = 0
KHO1 220651Z 14010KT 11/07 A3015 RMK A01 T01130069  RH  074%=      5-min Rain = 0
KHO1 220652Z 14008KT 11/07 A3015 RMK A01 T01140069  RH  074%=      5-min Rain = 0
KHO1 220653Z 15011KT 12/07 A3015 RMK A01 T01150069  RH  074%=      5-min Rain = 0
KHO1 220654Z 15010KT 12/07 A3015 RMK A01 T01150070  RH  073%=      5-min Rain = 0
KHO1 220655Z 15011KT 12/07 A3015 RMK A01 T01150069  RH  073%=      5-min Rain = 0
KHO1 220656Z 14010KT 12/07 A3015 RMK A01 T01160069  RH  073%=      5-min Rain = 0
KHO1 220657Z 15011KT 12/07 A3015 RMK A01 T01160070  RH  073%=      5-min Rain = 0
KHO1 220658Z 15009KT 12/07 A3015 RMK A01 T01160069  RH  073%=      5-min Rain = 0
KHO1 220659Z 15010KT 12/07 A3015 RMK A01 T01160069  RH  073%=      5-min Rain = 0
KHO1 220700Z 15011KT 12/07 A3015 RMK A01 T01160069  RH  073%=      5-min Rain = 0
KHO1 220701Z 14009KT 12/07 A3015 RMK A01 T01160069  RH  073%=      5-min Rain = 0
KHO1 220702Z 14010KT 12/07 A3015 RMK A01 T01160069  RH  073%=      5-min Rain = 0
KHO1 220703Z 14011KT 12/07 A3015 RMK A01 T01160070  RH  073%=      5-min Rain = 0
KHO1 220704Z 14010KT 12/07 A3015 RMK A01 T01160070  RH  073%=      5-min Rain = 0
KHO1 220705Z 14011KT 12/07 A3015 RMK A01 T01160070  RH  073%=      5-min Rain = 0
KHO1 220706Z 14012KT 12/07 A3015 RMK A01 T01160070  RH  073%=      5-min Rain = 0
KHO1 220707Z 14012KT 12/07 A3015 RMK A01 T01160070  RH  073%=      5-min Rain = 0
KHO1 220708Z 14011KT 12/07 A3015 RMK A01 T01160069  RH  073%=      5-min Rain = 0
KHO1 220709Z 14009KT 12/07 A3015 RMK A01 T01150069  RH  073%=      5-min Rain = 0
KHO1 220710Z 14009KT 11/07 A3015 RMK A01 T01140069  RH  074%=      5-min Rain = 0
KHO1 220711Z 14010KT 11/07 A3015 RMK A01 T01130069  RH  074%=      5-min Rain = 0
KHO1 220712Z 14010KT 11/07 A3015 RMK A01 T01130069  RH  074%=      5-min Rain = 0
KHO1 220713Z 14011KT 11/07 A3015 RMK A01 T01130069  RH  074%=      5-min Rain = 0
KHO1 220714Z 14010KT 11/07 A3015 RMK A01 T01130069  RH  074%=      5-min Rain = 0
KHO1 220715Z 14012KT 11/07 A3015 RMK A01 T01130069  RH  074%=      5-min Rain = 0
KHO1 220716Z 14010KT 11/07 A3015 RMK A01 T01130069  RH  074%=      5-min Rain = 0
KHO1 220717Z 14010KT 11/07 A3015 RMK A01 T01130069  RH  074%=      5-min Rain = 0
KHO1 220718Z 14011KT 11/07 A3015 RMK A01 T01130070  RH  075%=      5-min Rain = 0
KHO1 220719Z 14010KT 11/07 A3015 RMK A01 T01130069  RH  074%=      5-min Rain = 0
KHO1 220720Z 14009KT 11/07 A3015 RMK A01 T01130069  RH  075%=      5-min Rain = 0
KHO1 220721Z 14010KT 11/07 A3015 RMK A01 T01130069  RH  075%=      5-min Rain = 0
KHO1 220722Z 14010KT 11/07 A3014 RMK A01 T01130069  RH  075%=      5-min Rain = 0
KHO1 220723Z 14010KT 11/07 A3014 RMK A01 T01130070  RH  075%=      5-min Rain = 0
KHO1 220724Z 14009KT 11/07 A3014 RMK A01 T01130069  RH  075%=      5-min Rain = 0
KHO1 220725Z 13010KT 11/07 A3014 RMK A01 T01130070  RH  075%=      5-min Rain = 0
KHO1 220726Z 14008KT 11/07 A3014 RMK A01 T01120069  RH  075%=      5-min Rain = 0
KHO1 220727Z 14009KT 11/07 A3014 RMK A01 T01120069  RH  075%=      5-min Rain = 0
KHO1 220728Z 14009KT 11/07 A3014 RMK A01 T01130070  RH  075%=      5-min Rain = 0
KHO1 220729Z 14009KT 11/07 A3014 RMK A01 T01120069  RH  075%=      5-min Rain = 0
KHO1 220730Z 14009KT 11/07 A3014 RMK A01 T01120069  RH  075%=      5-min Rain = 0
KHO1 220731Z 14008KT 11/07 A3014 RMK A01 T01120069  RH  075%=      5-min Rain = 0
KHO1 220732Z 14008KT 11/07 A3014 RMK A01 T01120069  RH  075%=      5-min Rain = 0
KHO1 220733Z 14008KT 11/07 A3014 RMK A01 T01110069  RH  075%=      5-min Rain = 0
KHO1 220734Z 14009KT 11/07 A3014 RMK A01 T01110069  RH  075%=      5-min Rain = 0
KHO1 220735Z 14009KT 11/07 A3014 RMK A01 T01110069  RH  075%=      5-min Rain = 0
KHO1 220736Z 14008KT 11/07 A3014 RMK A01 T01110069  RH  075%=      5-min Rain = 0
KHO1 220737Z 14008KT 11/07 A3014 RMK A01 T01110070  RH  075%=      5-min Rain = 0
KHO1 220738Z 14008KT 11/07 A3015 RMK A01 T01120070  RH  075%=      5-min Rain = 0
KHO1 220739Z 14008KT 11/07 A3015 RMK A01 T01120070  RH  075%=      5-min Rain = 0
KHO1 220740Z 14008KT 11/07 A3014 RMK A01 T01110069  RH  075%=      5-min Rain = 0
KHO1 220741Z 14009KT 11/07 A3014 RMK A01 T01110070  RH  076%=      5-min Rain = 0
KHO1 220742Z 14008KT 11/07 A3014 RMK A01 T01120070  RH  075%=      5-min Rain = 0
KHO1 220743Z 14007KT 11/07 A3014 RMK A01 T01110070  RH  076%=      5-min Rain = 0
KHO1 220744Z 14010KT 11/07 A3014 RMK A01 T01120070  RH  076%=      5-min Rain = 0
KHO1 220745Z 14008KT 11/07 A3014 RMK A01 T01120070  RH  075%=      5-min Rain = 0
KHO1 220746Z 13008KT 11/07 A3014 RMK A01 T01110070  RH  076%=      5-min Rain = 0
KHO1 220747Z 14009KT 11/07 A3014 RMK A01 T01110070  RH  076%=      5-min Rain = 0
KHO1 220748Z 14009KT 11/07 A3014 RMK A01 T01120070  RH  076%=      5-min Rain = 0
KHO1 220749Z 13008KT 11/07 A3014 RMK A01 T01110070  RH  076%=      5-min Rain = 0
KHO1 220750Z 14009KT 11/07 A3014 RMK A01 T01110070  RH  076%=      5-min Rain = 0
KHO1 220751Z 14009KT 11/07 A3014 RMK A01 T01110070  RH  076%=      5-min Rain = 0
KHO1 220752Z 14009KT 11/07 A3014 RMK A01 T01110070  RH  076%=      5-min Rain = 0
KHO1 220753Z 14010KT 11/07 A3014 RMK A01 T01120070  RH  076%=      5-min Rain = 0
KHO1 220754Z 14008KT 11/07 A3014 RMK A01 T01120070  RH  075%=      5-min Rain = 0
KHO1 220755Z 14009KT 11/07 A3014 RMK A01 T01120070  RH  076%=      5-min Rain = 0
KHO1 220756Z 14009KT 11/07 A3014 RMK A01 T01120070  RH  076%=      5-min Rain = 0
KHO1 220757Z 14007KT 11/07 A3014 RMK A01 T01120070  RH  075%=      5-min Rain = 0
KHO1 220758Z 14009KT 11/07 A3014 RMK A01 T01120071  RH  076%=      5-min Rain = 0
KHO1 220759Z 13008KT 11/07 A3013 RMK A01 T01120071  RH  076%=      5-min Rain = 0
KHO1 220800Z 14009KT 11/07 A3013 RMK A01 T01120071  RH  076%=      5-min Rain = 0
KHO1 220801Z 14009KT 11/07 A3013 RMK A01 T01120071  RH  076%=      5-min Rain = 0
KHO1 220802Z 14009KT 11/07 A3013 RMK A01 T01120071  RH  076%=      5-min Rain = 0
KHO1 220803Z 14008KT 11/07 A3013 RMK A01 T01130071  RH  075%=      5-min Rain = 0
KHO1 220804Z 14008KT 11/07 A3013 RMK A01 T01120071  RH  076%=      5-min Rain = 0
KHO1 220805Z 14009KT 11/07 A3013 RMK A01 T01130071  RH  076%=      5-min Rain = 0
KHO1 220806Z 14009KT 11/07 A3013 RMK A01 T01130071  RH  075%=      5-min Rain = 0
KHO1 220807Z 14009KT 11/07 A3013 RMK A01 T01130071  RH  075%=      5-min Rain = 0
KHO1 220808Z 14009KT 11/07 A3013 RMK A01 T01140071  RH  075%=      5-min Rain = 0
KHO1 220809Z 14011KT 11/07 A3013 RMK A01 T01140072  RH  075%=      5-min Rain = 0
KHO1 220810Z 14010KT 11/07 A3013 RMK A01 T01140071  RH  075%=      5-min Rain = 0
KHO1 220811Z 14009KT 11/07 A3013 RMK A01 T01140071  RH  075%=      5-min Rain = 0
KHO1 220812Z 15009KT 11/07 A3013 RMK A01 T01140072  RH  075%=      5-min Rain = 0
KHO1 220813Z 14009KT 11/07 A3013 RMK A01 T01140072  RH  075%=      5-min Rain = 0
KHO1 220814Z 15011KT 12/07 A3013 RMK A01 T01150073  RH  075%=      5-min Rain = 0
KHO1 220815Z 14011KT 12/07 A3013 RMK A01 T01160073  RH  075%=      5-min Rain = 0
KHO1 220816Z 14012KT 12/07 A3013 RMK A01 T01160073  RH  075%=      5-min Rain = 0
KHO1 220817Z 14011KT 12/07 A3013 RMK A01 T01160073  RH  075%=      5-min Rain = 0
KHO1 220818Z 14011KT 12/07 A3012 RMK A01 T01160073  RH  075%=      5-min Rain = 0
KHO1 220819Z 14011KT 12/07 A3012 RMK A01 T01160073  RH  075%=      5-min Rain = 0
KHO1 220820Z 14013KT 12/07 A3012 RMK A01 T01160073  RH  075%=      5-min Rain = 0
KHO1 220821Z 14012KT 12/07 A3012 RMK A01 T01160073  RH  075%=      5-min Rain = 0
KHO1 220822Z 14011KT 12/07 A3012 RMK A01 T01160073  RH  075%=      5-min Rain = 0
KHO1 220823Z 14011KT 12/07 A3012 RMK A01 T01160073  RH  075%=      5-min Rain = 0
KHO1 220824Z 14011KT 12/07 A3012 RMK A01 T01160073  RH  075%=      5-min Rain = 0
KHO1 220825Z 14010KT 12/07 A3012 RMK A01 T01160073  RH  075%=      5-min Rain = 0
KHO1 220826Z 14010KT 12/07 A3012 RMK A01 T01160073  RH  075%=      5-min Rain = 0
KHO1 220827Z 14010KT 12/07 A3012 RMK A01 T01150073  RH  075%=      5-min Rain = 0
KHO1 220828Z 14010KT 12/07 A3012 RMK A01 T01150073  RH  075%=      5-min Rain = 0
KHO1 220829Z 14012KT 12/07 A3012 RMK A01 T01150074  RH  076%=      5-min Rain = 0
KHO1 220830Z 14009KT 12/07 A3012 RMK A01 T01160074  RH  075%=      5-min Rain = 0
KHO1 220831Z 14010KT 12/07 A3012 RMK A01 T01150073  RH  075%=      5-min Rain = 0
KHO1 220832Z 14010KT 12/07 A3012 RMK A01 T01150074  RH  076%=      5-min Rain = 0
KHO1 220833Z 14011KT 12/07 A3012 RMK A01 T01160074  RH  076%=      5-min Rain = 0
KHO1 220834Z 15011KT 12/07 A3012 RMK A01 T01160074  RH  076%=      5-min Rain = 0
KHO1 220835Z 15010KT 12/07 A3012 RMK A01 T01160074  RH  076%=      5-min Rain = 0
KHO1 220836Z 15010G15KT 12/08 A3012 RMK A01 T01160076  RH  076%=      5-min Rain = 0
KHO1 220837Z 15010KT 12/08 A3012 RMK A01 T01170076  RH  076%=      5-min Rain = 0
KHO1 220838Z 15011KT 12/08 A3012 RMK A01 T01170076  RH  076%=      5-min Rain = 0
KHO1 220839Z 15013KT 12/08 A3012 RMK A01 T01180076  RH  076%=      5-min Rain = 0
KHO1 220840Z 15011KT 12/08 A3012 RMK A01 T01180076  RH  075%=      5-min Rain = 0
KHO1 220841Z 15011KT 12/08 A3012 RMK A01 T01180075  RH  075%=      5-min Rain = 0
KHO1 220842Z 15010KT 12/08 A3012 RMK A01 T01180075  RH  075%=      5-min Rain = 0
KHO1 220843Z 15010KT 12/08 A3012 RMK A01 T01170075  RH  075%=      5-min Rain = 0
KHO1 220844Z 16010KT 12/08 A3012 RMK A01 T01170075  RH  076%=      5-min Rain = 0
KHO1 220845Z 15011KT 12/08 A3012 RMK A01 T01170076  RH  076%=      5-min Rain = 0
KHO1 220846Z 16010KT 12/08 A3012 RMK A01 T01170076  RH  076%=      5-min Rain = 0
KHO1 220847Z 15010KT 12/08 A3012 RMK A01 T01170076  RH  076%=      5-min Rain = 0
KHO1 220848Z 15010KT 12/08 A3012 RMK A01 T01170076  RH  076%=      5-min Rain = 0
KHO1 220849Z 15010KT 12/08 A3012 RMK A01 T01170076  RH  076%=      5-min Rain = 0
KHO1 220850Z 15010KT 12/08 A3012 RMK A01 T01170076  RH  076%=      5-min Rain = 0
KHO1 220851Z 15011KT 12/08 A3011 RMK A01 T01170076  RH  076%=      5-min Rain = 0
KHO1 220852Z 15012KT 12/08 A3011 RMK A01 T01170076  RH  076%=      5-min Rain = 0
KHO1 220853Z 15011KT 12/08 A3011 RMK A01 T01160076  RH  076%=      5-min Rain = 0
KHO1 220854Z 15011KT 12/08 A3011 RMK A01 T01160076  RH  077%=      5-min Rain = 0
KHO1 220855Z 15009KT 12/08 A3011 RMK A01 T01160076  RH  077%=      5-min Rain = 0
KHO1 220856Z 15011KT 12/08 A3011 RMK A01 T01150076  RH  077%=      5-min Rain = 0
KHO1 220857Z 15011KT 12/08 A3011 RMK A01 T01150077  RH  077%=      5-min Rain = 0
KHO1 220858Z 15011G16KT 12/08 A3011 RMK A01 T01150077  RH  077%=      5-min Rain = 0
KHO1 220859Z 15010KT 12/08 A3011 RMK A01 T01150076  RH  077%=      5-min Rain = 0
KHO1 220900Z 15011KT 12/08 A3011 RMK A01 T01150076  RH  077%=      5-min Rain = 0
KHO1 220901Z 15011KT 12/08 A3011 RMK A01 T01150076  RH  077%=      5-min Rain = 0
KHO1 220902Z 15009KT 11/08 A3011 RMK A01 T01140076  RH  077%=      5-min Rain = 0
KHO1 220903Z 15008KT 11/08 A3011 RMK A01 T01140075  RH  077%=      5-min Rain = 0
KHO1 220904Z 15008KT 11/08 A3011 RMK A01 T01130075  RH  078%=      5-min Rain = 0
KHO1 220905Z 15008KT 11/08 A3011 RMK A01 T01130075  RH  078%=      5-min Rain = 0
KHO1 220906Z 15008KT 11/08 A3011 RMK A01 T01130075  RH  078%=      5-min Rain = 0
KHO1 220907Z 15009KT 11/08 A301 RMK A01 T01130076  RH  078%=      5-min Rain = 0
KHO1 220908Z 15008KT 11/08 A301 RMK A01 T01130076  RH  078%=      5-min Rain = 0
KHO1 220909Z 15008KT 11/08 A301 RMK A01 T01120075  RH  078%=      5-min Rain = 0
KHO1 220910Z 15009KT 11/08 A301 RMK A01 T01120075  RH  078%=      5-min Rain = 0
KHO1 220911Z 15009KT 11/08 A301 RMK A01 T01120076  RH  078%=      5-min Rain = 0
KHO1 220912Z 14010KT 11/08 A301 RMK A01 T01120076  RH  078%=      5-min Rain = 0
KHO1 220913Z 15009KT 11/08 A301 RMK A01 T01120076  RH  079%=      5-min Rain = 0
KHO1 220914Z 15010KT 11/08 A301 RMK A01 T01120076  RH  079%=      5-min Rain = 0
KHO1 220915Z 15011KT 11/08 A301 RMK A01 T01130077  RH  079%=      5-min Rain = 0
KHO1 220916Z 16009KT 11/08 A301 RMK A01 T01130077  RH  079%=      5-min Rain = 0
KHO1 220917Z 15011KT 11/08 A301 RMK A01 T01130077  RH  079%=      5-min Rain = 0
KHO1 220918Z 16010KT 11/08 A301 RMK A01 T01130077  RH  078%=      5-min Rain = 0
KHO1 220919Z 15009KT 11/08 A301 RMK A01 T01130077  RH  078%=      5-min Rain = 0
KHO1 220920Z 15010KT 11/08 A301 RMK A01 T01130077  RH  078%=      5-min Rain = 0
KHO1 220921Z 15010KT 11/08 A301 RMK A01 T01130077  RH  079%=      5-min Rain = 0
KHO1 220922Z 16010KT 11/08 A301 RMK A01 T01130077  RH  079%=      5-min Rain = 0
KHO1 220923Z 15010KT 11/08 A301 RMK A01 T01130078  RH  079%=      5-min Rain = 0
KHO1 220924Z 15010KT 11/08 A3009 RMK A01 T01130078  RH  079%=      5-min Rain = 0
KHO1 220925Z 15009KT 11/08 A3009 RMK A01 T01130078  RH  079%=      5-min Rain = 0
KHO1 220926Z 15008KT 11/08 A3009 RMK A01 T01130078  RH  079%=      5-min Rain = 0
KHO1 220927Z 15010KT 11/08 A3009 RMK A01 T01140079  RH  079%=      5-min Rain = 0
KHO1 220928Z 15010KT 11/08 A3009 RMK A01 T01140079  RH  079%=      5-min Rain = 0
KHO1 220929Z 15010KT 11/08 A3009 RMK A01 T01140080  RH  079%=      5-min Rain = 0
KHO1 220930Z 15011KT 12/08 A3009 RMK A01 T01150080  RH  079%=      5-min Rain = 0
KHO1 220931Z 15012KT 12/08 A3009 RMK A01 T01150080  RH  079%=      5-min Rain = 0
KHO1 220932Z 15011KT 12/08 A3009 RMK A01 T01150080  RH  079%=      5-min Rain = 0
KHO1 220933Z 15009KT 11/08 A3009 RMK A01 T01140079  RH  079%=      5-min Rain = 0
KHO1 220934Z 15009KT 11/08 A3009 RMK A01 T01140079  RH  079%=      5-min Rain = 0
KHO1 220935Z 15009KT 11/08 A3009 RMK A01 T01140079  RH  079%=      5-min Rain = 0
KHO1 220936Z 15009KT 11/08 A3009 RMK A01 T01130079  RH  079%=      5-min Rain = 0
KHO1 220937Z 15012KT 11/08 A3009 RMK A01 T01140080  RH  080%=      5-min Rain = 0
KHO1 220938Z 16010KT 11/08 A301 RMK A01 T01130079  RH  079%=      5-min Rain = 0
KHO1 220939Z 16010KT 11/08 A301 RMK A01 T01130079  RH  079%=      5-min Rain = 0
KHO1 220940Z 15010KT 11/08 A301 RMK A01 T01130079  RH  080%=      5-min Rain = 0
KHO1 220941Z 15011KT 11/08 A301 RMK A01 T01130079  RH  080%=      5-min Rain = 0
KHO1 220942Z 15008KT 11/08 A301 RMK A01 T01120079  RH  080%=      5-min Rain = 0
KHO1 220943Z 15011KT 11/08 A301 RMK A01 T01120078  RH  080%=      5-min Rain = 0
KHO1 220944Z 15009KT 11/08 A301 RMK A01 T01110079  RH  080%=      5-min Rain = 0
KHO1 220945Z 15012KT 11/08 A301 RMK A01 T01110079  RH  080%=      5-min Rain = 0
KHO1 220946Z 16011KT 11/08 A301 RMK A01 T01110079  RH  080%=      5-min Rain = 0
KHO1 220947Z 15011KT 11/08 A301 RMK A01 T01110079  RH  080%=      5-min Rain = 0
KHO1 220948Z 16011KT 11/08 A301 RMK A01 T01110078  RH  080%=      5-min Rain = 0
KHO1 220949Z 16011KT 11/08 A301 RMK A01 T01110078  RH  080%=      5-min Rain = 0
KHO1 220950Z 15009KT 11/08 A301 RMK A01 T01100078  RH  080%=      5-min Rain = 0
KHO1 220951Z 15008KT 11/08 A301 RMK A01 T01100078  RH  081%=      5-min Rain = 0
KHO1 220952Z 15010KT 11/08 A301 RMK A01 T01100078  RH  081%=      5-min Rain = 0
KHO1 220953Z 15008KT 11/08 A301 RMK A01 T01100078  RH  081%=      5-min Rain = 0
KHO1 220954Z 15009KT 11/08 A301 RMK A01 T01090078  RH  081%=      5-min Rain = 0
KHO1 220955Z 15011KT 11/08 A3009 RMK A01 T01090078  RH  081%=      5-min Rain = 0
KHO1 220956Z 14010KT 11/08 A3009 RMK A01 T01090078  RH  081%=      5-min Rain = 0
KHO1 220957Z 14011KT 11/08 A3009 RMK A01 T01090078  RH  081%=      5-min Rain = 0
KHO1 220958Z 14010KT 11/08 A3009 RMK A01 T01090078  RH  081%=      5-min Rain = 0
KHO1 220959Z 14011KT 11/08 A3009 RMK A01 T01080078  RH  081%=      5-min Rain = 0
KHO1 221000Z 14010KT 11/08 A3009 RMK A01 T01080078  RH  082%=      5-min Rain = 0
KHO1 221001Z 14012KT 11/08 A3008 RMK A01 T01080078  RH  082%=      5-min Rain = 0
KHO1 221002Z 14012KT 11/08 A3008 RMK A01 T01080078  RH  082%=      5-min Rain = 0
KHO1 221003Z 14012KT 11/08 A3008 RMK A01 T01080078  RH  082%=      5-min Rain = 0
KHO1 221004Z 14011KT 11/08 A3008 RMK A01 T01080078  RH  082%=      5-min Rain = 0
KHO1 221005Z 14013KT 11/08 A3008 RMK A01 T01080079  RH  082%=      5-min Rain = 0
KHO1 221006Z 14013KT 11/08 A3008 RMK A01 T01080079  RH  082%=      5-min Rain = 0
KHO1 221007Z 14011KT 11/08 A3008 RMK A01 T01080079  RH  082%=      5-min Rain = 0
KHO1 221008Z 15010KT 11/08 A3009 RMK A01 T01080079  RH  082%=      5-min Rain = 0
KHO1 221009Z 15012KT 11/08 A3009 RMK A01 T01080079  RH  083%=      5-min Rain = 0
KHO1 221010Z 15011KT 11/08 A3009 RMK A01 T01080080  RH  083%=      5-min Rain = 0
KHO1 221011Z 15011KT 11/08 A3009 RMK A01 T01080080  RH  083%=      5-min Rain = 0
KHO1 221012Z 15011KT 11/08 A3009 RMK A01 T01080080  RH  083%=      5-min Rain = 0
KHO1 221013Z 15011KT 11/08 A3009 RMK A01 T01080080  RH  083%=      5-min Rain = 0
KHO1 221014Z 14011KT 11/08 A3008 RMK A01 T01080080  RH  083%=      5-min Rain = 0
KHO1 221015Z 14012KT 11/08 A3008 RMK A01 T01080080  RH  083%=      5-min Rain = 0
KHO1 221016Z 14012KT 11/08 A3008 RMK A01 T01080080  RH  083%=      5-min Rain = 0
KHO1 221017Z 14012KT 11/08 A3008 RMK A01 T01080080  RH  083%=      5-min Rain = 0
KHO1 221018Z 14012KT 11/08 A3009 RMK A01 T01080080  RH  083%=      5-min Rain = 0
KHO1 221019Z 14012KT 11/08 A3009 RMK A01 T01070080  RH  083%=      5-min Rain = 0
KHO1 221020Z 14012KT 11/08 A3009 RMK A01 T01070080  RH  083%=      5-min Rain = 0
KHO1 221021Z 14013KT 11/08 A3009 RMK A01 T01070080  RH  083%=      5-min Rain = 0
KHO1 221022Z 14013KT 11/08 A3009 RMK A01 T01070080  RH  083%=      5-min Rain = 0
KHO1 221023Z 14013KT 11/08 A3009 RMK A01 T01070080  RH  083%=      5-min Rain = 0
KHO1 221024Z 14012KT 11/08 A3009 RMK A01 T01070079  RH  083%=      5-min Rain = 0
KHO1 221025Z 14013KT 11/08 A3009 RMK A01 T01070080  RH  083%=      5-min Rain = 0
KHO1 221026Z 14013KT 11/08 A3009 RMK A01 T01070080  RH  083%=      5-min Rain = 0
KHO1 221027Z 14014KT 11/08 A3008 RMK A01 T01070080  RH  083%=      5-min Rain = 0
KHO1 221028Z 14011KT 11/08 A3008 RMK A01 T01070079  RH  083%=      5-min Rain = 0
KHO1 221029Z 13013KT 11/08 A3008 RMK A01 T01070079  RH  083%=      5-min Rain = 0
KHO1 221030Z 14013KT 11/08 A3008 RMK A01 T01060079  RH  083%=      5-min Rain = 0
KHO1 221031Z 14012KT 11/08 A3008 RMK A01 T01060079  RH  083%=      5-min Rain = 0
KHO1 221032Z 13011KT 11/08 A3008 RMK A01 T01060079  RH  083%=      5-min Rain = 0
KHO1 221033Z 14013KT 11/08 A3008 RMK A01 T01060079  RH  083%=      5-min Rain = 0
KHO1 221034Z 14011KT 11/08 A3008 RMK A01 T01060079  RH  084%=      5-min Rain = 0
KHO1 221035Z 13013KT 11/08 A3008 RMK A01 T01060079  RH  084%=      5-min Rain = 0
KHO1 221036Z 13012KT 11/08 A3007 RMK A01 T01060079  RH  084%=      5-min Rain = 0
KHO1 221037Z 13013G18KT 11/08 A3007 RMK A01 T01060079  RH  084%=      5-min Rain = 0
KHO1 221038Z 13011KT 11/08 A3007 RMK A01 T01060079  RH  084%=      5-min Rain = 0
KHO1 221039Z 13009KT 11/08 A3007 RMK A01 T01050079  RH  084%=      5-min Rain = 0
KHO1 221040Z 13011KT 11/08 A3007 RMK A01 T01050079  RH  084%=      5-min Rain = 0
KHO1 221041Z 13012KT 11/08 A3007 RMK A01 T01050078  RH  084%=      5-min Rain = 0
KHO1 221042Z 13011KT 11/08 A3007 RMK A01 T01050079  RH  084%=      5-min Rain = 0
KHO1 221043Z 13010KT 11/08 A3007 RMK A01 T01050079  RH  084%=      5-min Rain = 0
KHO1 221044Z 13010KT 11/08 A3007 RMK A01 T01050078  RH  084%=      5-min Rain = 0
KHO1 221045Z 13011KT 10/08 A3007 RMK A01 T01040078  RH  084%=      5-min Rain = 0
KHO1 221046Z 13010KT 10/08 A3007 RMK A01 T01040078  RH  084%=      5-min Rain = 0
KHO1 221047Z 13011KT 10/08 A3007 RMK A01 T01040078  RH  084%=      5-min Rain = 0
KHO1 221048Z 13012KT 10/08 A3006 RMK A01 T01040079  RH  084%=      5-min Rain = 0
KHO1 221049Z 13011KT 10/08 A3006 RMK A01 T01040079  RH  084%=      5-min Rain = 0
KHO1 221050Z 12011KT 10/08 A3006 RMK A01 T01040079  RH  084%=      5-min Rain = 0
KHO1 221051Z 12013KT 10/08 A3006 RMK A01 T01040079  RH  084%=      5-min Rain = 0
KHO1 221052Z 13011G17KT 10/08 A3006 RMK A01 T01040079  RH  084%=      5-min Rain = 0
KHO1 221053Z 12014KT 10/08 A3006 RMK A01 T01040079  RH  084%=      5-min Rain = 0
KHO1 221054Z 12012G17KT 10/08 A3005 RMK A01 T01040079  RH  084%=      5-min Rain = 0
KHO1 221055Z 13014G20KT 10/08 A3005 RMK A01 T01040079  RH  084%=      5-min Rain = 0
KHO1 221056Z 13012KT 10/08 A3005 RMK A01 T01040079  RH  084%=      5-min Rain = 0
KHO1 221057Z 12011KT 10/08 A3005 RMK A01 T01040079  RH  084%=      5-min Rain = 0
KHO1 221058Z 13012G17KT 10/08 A3005 RMK A01 T01040079  RH  085%=      5-min Rain = 0
KHO1 221059Z 13012KT 10/08 A3005 RMK A01 T01040079  RH  085%=      5-min Rain = 0
KHO1 221100Z 12012KT 10/08 A3005 RMK A01 T01040079  RH  085%=      5-min Rain = 0
KHO1 221101Z 12013G18KT 10/08 A3005 RMK A01 T01040079  RH  085%=      5-min Rain = 0
KHO1 221102Z 12013KT 10/08 A3004 RMK A01 T01040080  RH  085%=      5-min Rain = 0
KHO1 221103Z 12011KT 10/08 A3004 RMK A01 T01040080  RH  085%=      5-min Rain = 0
KHO1 221104Z 13012KT 10/08 A3005 RMK A01 T01040080  RH  085%=      5-min Rain = 0
KHO1 221105Z 12012KT 10/08 A3005 RMK A01 T01040080  RH  085%=      5-min Rain = 0
KHO1 221106Z 13011KT 10/08 A3005 RMK A01 T01040080  RH  085%=      5-min Rain = 0
KHO1 221107Z 13010KT 10/08 A3005 RMK A01 T01030079  RH  085%=      5-min Rain = 0
KHO1 221108Z 13010KT 10/08 A3005 RMK A01 T01030079  RH  085%=      5-min Rain = 0
KHO1 221109Z 13011KT 10/08 A3005 RMK A01 T01030079  RH  085%=      5-min Rain = 0
KHO1 221110Z 13010KT 10/08 A3005 RMK A01 T01020079  RH  086%=      5-min Rain = 0
KHO1 221111Z 13011KT 10/08 A3005 RMK A01 T01020079  RH  086%=      5-min Rain = 0
KHO1 221112Z 14011KT 10/08 A3005 RMK A01 T01020080  RH  086%=      5-min Rain = 0
KHO1 221113Z 13010KT 10/08 A3005 RMK A01 T01020079  RH  086%=      5-min Rain = 0
KHO1 221114Z 13012KT 10/08 A3005 RMK A01 T01020080  RH  086%=      5-min Rain = 0
KHO1 221115Z 13013KT 10/08 A3005 RMK A01 T01020080  RH  087%=      5-min Rain = 0
KHO1 221116Z 13014KT 10/08 A3004 RMK A01 T01020080  RH  087%=      5-min Rain = 0
KHO1 221117Z 13011KT 10/08 A3004 RMK A01 T01020080  RH  086%=      5-min Rain = 0
KHO1 221118Z 13010KT 10/08 A3004 RMK A01 T01010080  RH  087%=      5-min Rain = 0
KHO1 221119Z 13012KT 10/08 A3004 RMK A01 T01010080  RH  087%=      5-min Rain = 0
KHO1 221120Z 13012KT 10/08 A3004 RMK A01 T01010080  RH  087%=      5-min Rain = 0
KHO1 221121Z 13011KT 10/08 A3004 RMK A01 T01010080  RH  087%=      5-min Rain = 0
KHO1 221122Z 14012KT 10/08 A3004 RMK A01 T01010080  RH  087%=      5-min Rain = 0
KHO1 221123Z 13010KT 10/08 A3004 RMK A01 T01010080  RH  087%=      5-min Rain = 0
KHO1 221124Z 13011KT 10/08 A3004 RMK A01 T01010080  RH  087%=      5-min Rain = 0
KHO1 221125Z 14011KT 10/08 A3004 RMK A01 T01010081  RH  087%=      5-min Rain = 0
KHO1 221126Z 13010KT 10/08 A3004 RMK A01 T01000080  RH  087%=      5-min Rain = 0
KHO1 221127Z 13010KT 10/08 A3004 RMK A01 T01000080  RH  087%=      5-min Rain = 0
KHO1 221128Z 13008KT 10/08 A3004 RMK A01 T01000080  RH  088%=      5-min Rain = 0
KHO1 221129Z 14008KT 10/08 A3005 RMK A01 T00990080  RH  088%=      5-min Rain = 0
KHO1 221130Z 14010KT 10/08 A3005 RMK A01 T00990081  RH  088%=      5-min Rain = 0
KHO1 221131Z 13008KT 10/08 A3004 RMK A01 T00990081  RH  088%=      5-min Rain = 0
KHO1 221132Z 13008KT 10/08 A3004 RMK A01 T00990081  RH  088%=      5-min Rain = 0
KHO1 221133Z 13009KT 10/08 A3004 RMK A01 T00990081  RH  089%=      5-min Rain = 0
KHO1 221134Z 13010KT 10/08 A3004 RMK A01 T00990082  RH  089%=      5-min Rain = 0
KHO1 221135Z 13009KT 10/08 A3004 RMK A01 T00990082  RH  089%=      5-min Rain = 0
KHO1 221136Z 13008KT 10/08 A3004 RMK A01 T00990082  RH  089%=      5-min Rain = 0
KHO1 221137Z 12009KT 10/08 A3004 RMK A01 T00990083  RH  090%=      5-min Rain = 0
KHO1 221138Z 12009KT 10/08 A3004 RMK A01 T00990083  RH  090%=      5-min Rain = 0
KHO1 221139Z 12008KT 10/08 A3003 RMK A01 T00990083  RH  090%=      5-min Rain = 0
KHO1 221140Z 12008KT 10/08 A3003 RMK A01 T00990083  RH  090%=      5-min Rain = 0
KHO1 221141Z 12007KT 10/08 A3003 RMK A01 T00990084  RH  090%=      5-min Rain = 0
KHO1 221142Z 13006KT 10/08 A3004 RMK A01 T00990084  RH  090%=      5-min Rain = 0
KHO1 221143Z 13008KT 10/08 A3004 RMK A01 T00990084  RH  090%=      5-min Rain = 0
KHO1 221144Z 13010KT 10/09 A3003 RMK A01 T00990086  RH  092%=      5-min Rain = 0
KHO1 221145Z 13008KT 10/09 A3003 RMK A01 T01000088  RH  092%=      5-min Rain = 0
KHO1 221146Z 13008KT 10/09 A3003 RMK A01 T01000088  RH  092%=      5-min Rain = 0
KHO1 221147Z 13008KT 10/09 A3004 RMK A01 T01000087  RH  092%=      5-min Rain = 0
KHO1 221148Z 13007KT 10/09 A3004 RMK A01 T00990087  RH  092%=      5-min Rain = 0
KHO1 221149Z 13007KT 10/09 A3004 RMK A01 T00990086  RH  091%=      5-min Rain = 0
KHO1 221150Z 12006KT 10/09 A3004 RMK A01 T00990086  RH  091%=      5-min Rain = 0
KHO1 221151Z 12007KT 10/09 A3004 RMK A01 T00990086  RH  092%=      5-min Rain = 0
KHO1 221152Z 13009KT 10/09 A3004 RMK A01 T00990088  RH  093%=      5-min Rain = 0
KHO1 221153Z 12010KT 10/09 A3004 RMK A01 T01000089  RH  093%=      5-min Rain = 0
KHO1 221154Z 13010KT 10/09 A3004 RMK A01 T01000089  RH  093%=      5-min Rain = 0
KHO1 221155Z 12010KT 10/09 A3004 RMK A01 T01000089  RH  093%=      5-min Rain = 0
KHO1 221156Z 12010KT 10/09 A3003 RMK A01 T01000089  RH  093%=      5-min Rain = 0
KHO1 221157Z 12009KT 10/09 A3003 RMK A01 T01010090  RH  093%=      5-min Rain = 0
KHO1 221158Z 13009KT 10/09 A3003 RMK A01 T01010089  RH  093%=      5-min Rain = 0
KHO1 221159Z 13008KT 10/09 A3004 RMK A01 T01010089  RH  092%=      5-min Rain = 0
KHO1 221200Z 13008KT 10/09 A3004 RMK A01 T01000088  RH  092%=      5-min Rain = 0
KHO1 221201Z 13007KT 10/09 A3004 RMK A01 T01000088  RH  092%=      5-min Rain = 0
KHO1 221202Z 13008KT 10/09 A3004 RMK A01 T01000089  RH  093%=      5-min Rain = 0
KHO1 221203Z 13007KT 10/09 A3003 RMK A01 T01000089  RH  093%=      5-min Rain = 0
KHO1 221204Z 12007KT 10/09 A3003 RMK A01 T01010090  RH  093%=      5-min Rain = 0
KHO1 221205Z 12005KT 10/09 A3003 RMK A01 T01000089  RH  093%=      5-min Rain = 0
KHO1 221206Z 12006KT 10/09 A3003 RMK A01 T01000089  RH  093%=      5-min Rain = 0
KHO1 221207Z 13006KT 10/09 A3004 RMK A01 T01000089  RH  093%=      5-min Rain = 0
KHO1 221208Z 13006KT 10/09 A3004 RMK A01 T01000089  RH  093%=      5-min Rain = 0
KHO1 221209Z 14005KT 10/09 A3004 RMK A01 T01000089  RH  093%=      5-min Rain = 0
KHO1 221210Z 13004KT 10/09 A3004 RMK A01 T01000089  RH  093%=      5-min Rain = 0
KHO1 221211Z 13005KT 10/09 A3004 RMK A01 T01000089  RH  093%=      5-min Rain = 0
KHO1 221212Z 12004KT 10/09 A3004 RMK A01 T01000089  RH  093%=      5-min Rain = 0
KHO1 221213Z 12006KT 10/09 A3004 RMK A01 T01000089  RH  093%=      5-min Rain = 0
KHO1 221214Z 12005KT 10/09 A3003 RMK A01 T01000089  RH  093%=      5-min Rain = 0
KHO1 221215Z 12006KT 10/09 A3003 RMK A01 T00990089  RH  093%=      5-min Rain = 0
KHO1 221216Z 12006KT 10/09 A3004 RMK A01 T01000090  RH  093%=      5-min Rain = 0
KHO1 221217Z 11004KT 10/09 A3004 RMK A01 T01000090  RH  094%=      5-min Rain = 0
KHO1 221218Z 12004KT 10/09 A3004 RMK A01 T00990089  RH  093%=      5-min Rain = 0
KHO1 221219Z 12003KT 10/09 A3004 RMK A01 T00990088  RH  093%=      5-min Rain = 0
KHO1 221220Z 12004KT 10/09 A3004 RMK A01 T00980087  RH  093%=      5-min Rain = 0
KHO1 221221Z 12003KT 10/09 A3004 RMK A01 T00980087  RH  093%=      5-min Rain = 0
KHO1 221222Z 13004KT 10/09 A3004 RMK A01 T00970087  RH  093%=      5-min Rain = 0
KHO1 221223Z 13004KT 10/09 A3004 RMK A01 T00970087  RH  094%=      5-min Rain = 0
KHO1 221224Z 13004KT 10/09 A3004 RMK A01 T00960086  RH  094%=      5-min Rain = 0
KHO1 221225Z 13004KT 10/09 A3004 RMK A01 T00960086  RH  094%=      5-min Rain = 0
KHO1 221226Z 13004KT 10/09 A3005 RMK A01 T00960087  RH  094%=      5-min Rain = 0
KHO1 221227Z 13005KT 10/09 A3005 RMK A01 T00950086  RH  094%=      5-min Rain = 0
KHO1 221228Z 13004KT 10/09 A3005 RMK A01 T00950086  RH  094%=      5-min Rain = 0
KHO1 221229Z 13003KT 10/09 A3005 RMK A01 T00950087  RH  095%=      5-min Rain = 0
KHO1 221230Z 14004KT 10/09 A3005 RMK A01 T00950087  RH  095%=      5-min Rain = 0
KHO1 221231Z 14004KT 09/09 A3005 RMK A01 T00940086  RH  095%=      5-min Rain = 0
KHO1 221232Z 14004KT 09/09 A3005 RMK A01 T00940086  RH  095%=      5-min Rain = 0
KHO1 221233Z 15004KT 09/09 A3006 RMK A01 T00940086  RH  095%=      5-min Rain = 0
KHO1 221234Z 16005KT 09/09 A3006 RMK A01 T00940086  RH  095%=      5-min Rain = 0
KHO1 221235Z 15006KT 10/09 A3006 RMK A01 T00950088  RH  095%=      5-min Rain = 0
KHO1 221236Z 14007KT 10/09 A3005 RMK A01 T00950088  RH  096%=      5-min Rain = 0
KHO1 221237Z 13008KT 10/09 A3005 RMK A01 T00960089  RH  096%=      5-min Rain = 0
KHO1 221238Z 14008KT 10/09 A3005 RMK A01 T00960089  RH  096%=      5-min Rain = 0
KHO1 221239Z 14008KT 10/09 A3005 RMK A01 T00960089  RH  095%=      5-min Rain = 0
KHO1 221240Z 14008KT 10/09 A3005 RMK A01 T00970090  RH  095%=      5-min Rain = 0
KHO1 221241Z 14008KT 10/09 A3005 RMK A01 T00970090  RH  095%=      5-min Rain = 0
KHO1 221242Z 15008KT 10/09 A3005 RMK A01 T00980091  RH  095%=      5-min Rain = 0
KHO1 221243Z 15009KT 10/09 A3005 RMK A01 T00980091  RH  095%=      5-min Rain = 0
KHO1 221244Z 15008KT 10/09 A3005 RMK A01 T00990091  RH  095%=      5-min Rain = 0
KHO1 221245Z 15008KT 10/09 A3005 RMK A01 T01000092  RH  095%=      5-min Rain = 0
KHO1 221246Z 15008KT 10/09 A3005 RMK A01 T01000092  RH  095%=      5-min Rain = 0
KHO1 221247Z 15009KT 10/09 A3005 RMK A01 T01010092  RH  094%=      5-min Rain = 0
KHO1 221248Z 15008KT 10/09 A3005 RMK A01 T01010092  RH  094%=      5-min Rain = 0
KHO1 221249Z 15008KT 10/09 A3005 RMK A01 T01010092  RH  094%=      5-min Rain = 0
KHO1 221250Z 15007KT 10/09 A3005 RMK A01 T01020092  RH  094%=      5-min Rain = 0
KHO1 221251Z 16008KT 10/09 A3005 RMK A01 T01020092  RH  094%=      5-min Rain = 0
KHO1 221252Z 16008KT 10/09 A3005 RMK A01 T01020092  RH  094%=      5-min Rain = 0
KHO1 221253Z 15008KT 10/09 A3005 RMK A01 T01020092  RH  093%=      5-min Rain = 0
KHO1 221254Z 16008KT 10/09 A3005 RMK A01 T01020092  RH  093%=      5-min Rain = 0
KHO1 221255Z 16008KT 10/09 A3005 RMK A01 T01020092  RH  093%=      5-min Rain = 0
KHO1 221256Z 16008KT 10/09 A3005 RMK A01 T01020091  RH  093%=      5-min Rain = 0
KHO1 221257Z 15008KT 10/09 A3005 RMK A01 T01020092  RH  093%=      5-min Rain = 0
KHO1 221258Z 15008KT 10/09 A3005 RMK A01 T01020092  RH  093%=      5-min Rain = 0
KHO1 221259Z 16008KT 10/09 A3005 RMK A01 T01020091  RH  093%=      5-min Rain = 0
KHO1 221300Z 16008KT 10/09 A3005 RMK A01 T01010091  RH  093%=      5-min Rain = 0
KHO1 221301Z 16008KT 10/09 A3004 RMK A01 T01020092  RH  094%=      5-min Rain = 0
KHO1 221302Z 16007KT 10/09 A3004 RMK A01 T01020092  RH  093%=      5-min Rain = 0
KHO1 221303Z 16006KT 10/09 A3004 RMK A01 T01020092  RH  093%=      5-min Rain = 0
KHO1 221304Z 17006KT 10/09 A3004 RMK A01 T01020092  RH  093%=      5-min Rain = 0
KHO1 221305Z 17006KT 10/09 A3004 RMK A01 T01020091  RH  093%=      5-min Rain = 0
KHO1 221306Z 17005KT 10/09 A3005 RMK A01 T01020092  RH  093%=      5-min Rain = 0
KHO1 221307Z 18005KT 10/09 A3005 RMK A01 T01020091  RH  093%=      5-min Rain = 0
KHO1 221308Z 18005KT 10/09 A3005 RMK A01 T01020091  RH  093%=      5-min Rain = 0
KHO1 221309Z 19004KT 10/09 A3005 RMK A01 T01020091  RH  093%=      5-min Rain = 0
KHO1 221310Z 19004KT 10/09 A3005 RMK A01 T01010090  RH  093%=      5-min Rain = 0
KHO1 221311Z 19004KT 10/09 A3005 RMK A01 T01010090  RH  093%=      5-min Rain = 0
KHO1 221312Z 20005KT 10/09 A3006 RMK A01 T01010090  RH  093%=      5-min Rain = 0
KHO1 221313Z 20005KT 10/09 A3005 RMK A01 T01000090  RH  093%=      5-min Rain = 0
KHO1 221314Z 20004KT 10/09 A3006 RMK A01 T01000089  RH  093%=      5-min Rain = 0
KHO1 221315Z 21004KT 10/09 A3006 RMK A01 T01000089  RH  093%=      5-min Rain = 0
KHO1 221316Z 21005KT 10/09 A3006 RMK A01 T00990089  RH  093%=      5-min Rain = 0
KHO1 221317Z 21006KT 10/09 A3006 RMK A01 T00990089  RH  094%=      5-min Rain = 0
KHO1 221318Z 22005KT 10/09 A3006 RMK A01 T00990090  RH  094%=      5-min Rain = 0
KHO1 221319Z 23005KT 10/09 A3006 RMK A01 T00990090  RH  094%=      5-min Rain = 0
KHO1 221320Z 24005KT 10/09 A3006 RMK A01 T00980089  RH  094%=      5-min Rain = 0
KHO1 221321Z 25005KT 10/09 A3006 RMK A01 T00970087  RH  094%=      5-min Rain = 0
KHO1 221322Z 25005KT 10/09 A3006 RMK A01 T00960087  RH  094%=      5-min Rain = 0
KHO1 221323Z 26005KT 10/09 A3006 RMK A01 T00950086  RH  094%=      5-min Rain = 0
KHO1 221324Z 26004KT 10/09 A3006 RMK A01 T00950086  RH  094%=      5-min Rain = 0
KHO1 221325Z 26003KT 09/09 A3006 RMK A01 T00940086  RH  095%=      5-min Rain = 0
KHO1 221326Z 26003KT 09/09 A3006 RMK A01 T00940086  RH  095%=      5-min Rain = 0
KHO1 221327Z 25003KT 09/09 A3006 RMK A01 T00940086  RH  095%=      5-min Rain = 0
KHO1 221328Z 25004KT 09/09 A3006 RMK A01 T00940086  RH  095%=      5-min Rain = 0
KHO1 221329Z 26003KT 09/09 A3006 RMK A01 T00930086  RH  095%=      5-min Rain = 0
KHO1 221330Z 25004KT 09/09 A3007 RMK A01 T00930086  RH  096%=      5-min Rain = 0
KHO1 221331Z 25003KT 09/09 A3007 RMK A01 T00930086  RH  096%=      5-min Rain = 0
KHO1 221332Z 25002KT 09/09 A3006 RMK A01 T00930086  RH  096%=      5-min Rain = 0
KHO1 221333Z 25002KT 09/09 A3006 RMK A01 T00920086  RH  096%=      5-min Rain = 0
KHO1 221334Z 26002KT 09/09 A3006 RMK A01 T00920086  RH  096%=      5-min Rain = 0
KHO1 221335Z 26003KT 09/09 A3006 RMK A01 T00920085  RH  096%=      5-min Rain = 0
KHO1 221336Z 26003KT 09/09 A3007 RMK A01 T00920085  RH  096%=      5-min Rain = 0
KHO1 221337Z 26004KT 09/09 A3007 RMK A01 T00910085  RH  096%=      5-min Rain = 0
KHO1 221338Z 26005KT 09/09 A3007 RMK A01 T00910085  RH  096%=      5-min Rain = 0
KHO1 221339Z 25006KT 09/09 A3007 RMK A01 T00910085  RH  096%=      5-min Rain = 0
KHO1 221340Z 25006KT 09/09 A3007 RMK A01 T00910085  RH  096%=      5-min Rain = 0
KHO1 221341Z 24006KT 09/09 A3007 RMK A01 T00910086  RH  097%=      5-min Rain = 0
KHO1 221342Z 24006KT 09/09 A3007 RMK A01 T00910086  RH  097%=      5-min Rain = 0
KHO1 221343Z 23006KT 09/09 A3007 RMK A01 T00910087  RH  097%=      5-min Rain = 0
KHO1 221344Z 23007KT 09/09 A3007 RMK A01 T00920088  RH  097%=      5-min Rain = 0
KHO1 221345Z 22006KT 09/09 A3007 RMK A01 T00930089  RH  097%=      5-min Rain = 0
KHO1 221346Z 22006KT 09/09 A3007 RMK A01 T00940090  RH  098%=      5-min Rain = 0
KHO1 221347Z 22006KT 10/09 A3007 RMK A01 T00950091  RH  097%=      5-min Rain = 0
KHO1 221348Z 22007KT 10/09 A3008 RMK A01 T00960092  RH  097%=      5-min Rain = 0
KHO1 221349Z 22007KT 10/09 A3008 RMK A01 T00980094  RH  097%=      5-min Rain = 0
KHO1 221350Z 22006KT 10/09 A3008 RMK A01 T00980094  RH  097%=      5-min Rain = 0
KHO1 221351Z 22007KT 10/09 A3008 RMK A01 T00990094  RH  097%=      5-min Rain = 0
KHO1 221352Z 21006KT 10/09 A3008 RMK A01 T00990094  RH  096%=      5-min Rain = 0
KHO1 221353Z 22006KT 10/09 A3008 RMK A01 T01000094  RH  096%=      5-min Rain = 0
KHO1 221354Z 21008KT 10/10 A3008 RMK A01 T01010095  RH  096%=      5-min Rain = 0
KHO1 221355Z 22008KT 10/10 A3008 RMK A01 T01020096  RH  096%=      5-min Rain = 0
KHO1 221356Z 21009KT 10/10 A3008 RMK A01 T01040098  RH  096%=      5-min Rain = 0
KHO1 221357Z 21010KT 11/10 A3008 RMK A01 T01050099  RH  096%=      5-min Rain = 0
KHO1 221358Z 22009KT 11/10 A3008 RMK A01 T01060099  RH  095%=      5-min Rain = 0
KHO1 221359Z 22008KT 11/10 A3008 RMK A01 T01070099  RH  095%=      5-min Rain = 0
KHO1 221400Z 21009KT 11/10 A3008 RMK A01 T01080099  RH  094%=      5-min Rain = 0
KHO1 221401Z 21011KT 11/10 A3008 RMK A01 T01090100  RH  094%=      5-min Rain = 0
KHO1 221402Z 21012KT 11/10 A3008 RMK A01 T01100100  RH  094%=      5-min Rain = 0
KHO1 221403Z 21011KT 11/10 A3008 RMK A01 T01100100  RH  093%=      5-min Rain = 0
KHO1 221404Z 21013KT 11/10 A3008 RMK A01 T01110100  RH  093%=      5-min Rain = 0
KHO1 221405Z 22011KT 11/10 A3009 RMK A01 T01110100  RH  093%=      5-min Rain = 0
KHO1 221406Z 22011KT 11/10 A3009 RMK A01 T01110100  RH  093%=      5-min Rain = 0
KHO1 221407Z 22010KT 11/10 A3009 RMK A01 T01120100  RH  092%=      5-min Rain = 0
KHO1 221408Z 22012KT 11/10 A3009 RMK A01 T01120100  RH  092%=      5-min Rain = 0
KHO1 221409Z 22011KT 11/10 A3009 RMK A01 T01120100  RH  092%=      5-min Rain = 0
KHO1 221410Z 22010KT 11/10 A3009 RMK A01 T01120100  RH  092%=      5-min Rain = 0
KHO1 221411Z 22012KT 11/10 A3009 RMK A01 T01120100  RH  092%=      5-min Rain = 0
KHO1 221412Z 22010KT 11/10 A3009 RMK A01 T01120100  RH  092%=      5-min Rain = 0
KHO1 221413Z 22012KT 11/10 A3009 RMK A01 T01120100  RH  092%=      5-min Rain = 0
KHO1 221414Z 22011KT 11/10 A3009 RMK A01 T01120100  RH  092%=      5-min Rain = 0
KHO1 221415Z 22011KT 11/10 A3009 RMK A01 T01120100  RH  092%=      5-min Rain = 0
KHO1 221416Z 22013KT 11/10 A3009 RMK A01 T01120100  RH  092%=      5-min Rain = 0
KHO1 221417Z 22012KT 11/10 A3009 RMK A01 T01120100  RH  092%=      5-min Rain = 0
KHO1 221418Z 22011KT 11/10 A3009 RMK A01 T01120100  RH  092%=      5-min Rain = 0
KHO1 221419Z 20014KT 11/10 A3009 RMK A01 T01130100  RH  092%=      5-min Rain = 0
KHO1 221420Z 20012KT 11/10 A3009 RMK A01 T01130100  RH  092%=      5-min Rain = 0
KHO1 221421Z 21012KT 11/10 A3009 RMK A01 T01130100  RH  092%=      5-min Rain = 0
KHO1 221422Z 22011KT 11/10 A3009 RMK A01 T01130101  RH  092%=      5-min Rain = 0
KHO1 221423Z 22011KT 11/10 A3009 RMK A01 T01130101  RH  092%=      5-min Rain = 0
KHO1 221424Z 22011KT 11/10 A3009 RMK A01 T01130101  RH  092%=      5-min Rain = 0
KHO1 221425Z 22011KT 11/10 A3009 RMK A01 T01130101  RH  092%=      5-min Rain = 0
KHO1 221426Z 22011KT 11/10 A3009 RMK A01 T01140101  RH  092%=      5-min Rain = 0
KHO1 221427Z 21013KT 11/10 A3009 RMK A01 T01140101  RH  092%=      5-min Rain = 0
KHO1 221428Z 22011KT 11/10 A3009 RMK A01 T01140102  RH  092%=      5-min Rain = 0
KHO1 221429Z 21012KT 12/10 A3009 RMK A01 T01150102  RH  092%=      5-min Rain = 0
KHO1 221430Z 22013KT 12/10 A3009 RMK A01 T01150102  RH  092%=      5-min Rain = 0
KHO1 221431Z 23011KT 12/10 A3009 RMK A01 T01150103  RH  092%=      5-min Rain = 0
KHO1 221432Z 22012G17KT 12/10 A3009 RMK A01 T01160104  RH  092%=      5-min Rain = 0
KHO1 221433Z 22012KT 12/10 A301 RMK A01 T01170104  RH  092%=      5-min Rain = 0
KHO1 221434Z 23013KT 12/10 A301 RMK A01 T01170103  RH  092%=      5-min Rain = 0
KHO1 221435Z 23014KT 12/10 A301 RMK A01 T01170103  RH  091%=      5-min Rain = 0
KHO1 221436Z 23014KT 12/10 A301 RMK A01 T01170104  RH  091%=      5-min Rain = 0
KHO1 221437Z 22012KT 12/10 A301 RMK A01 T01180104  RH  091%=      5-min Rain = 0
KHO1 221438Z 22013KT 12/10 A301 RMK A01 T01180104  RH  091%=      5-min Rain = 0
KHO1 221439Z 22012KT 12/10 A301 RMK A01 T01180104  RH  091%=      5-min Rain = 0
KHO1 221440Z 22012KT 12/11 A301 RMK A01 T01190105  RH  091%=      5-min Rain = 0
KHO1 221441Z 21011KT 12/11 A301 RMK A01 T01190105  RH  091%=      5-min Rain = 0
KHO1 221442Z 21012KT 12/11 A301 RMK A01 T01200105  RH  091%=      5-min Rain = 0
KHO1 221443Z 21013G18KT 12/11 A301 RMK A01 T01200105  RH  091%=      5-min Rain = 0
KHO1 221444Z 21013KT 12/11 A301 RMK A01 T01210105  RH  090%=      5-min Rain = 0
KHO1 221445Z 21015KT 12/11 A301 RMK A01 T01210105  RH  090%=      5-min Rain = 0
KHO1 221446Z 21014KT 12/11 A301 RMK A01 T01220105  RH  089%=      5-min Rain = 0
KHO1 221447Z 21014KT 12/11 A301 RMK A01 T01220105  RH  089%=      5-min Rain = 0
KHO1 221448Z 21015KT 12/11 A301 RMK A01 T01230105  RH  089%=      5-min Rain = 0
KHO1 221449Z 21015KT 12/11 A301 RMK A01 T01240105  RH  088%=      5-min Rain = 0
KHO1 221450Z 21013KT 13/11 A301 RMK A01 T01250105  RH  088%=      5-min Rain = 0
KHO1 221451Z 20015KT 13/11 A301 RMK A01 T01260106  RH  088%=      5-min Rain = 0
KHO1 221452Z 20014KT 13/11 A301 RMK A01 T01270105  RH  087%=      5-min Rain = 0
KHO1 221453Z 19017G22KT 13/11 A301 RMK A01 T01280105  RH  086%=      5-min Rain = 0
KHO1 221454Z 19015G20KT 13/11 A301 RMK A01 T01290105  RH  085%=      5-min Rain = 0
KHO1 221455Z 19016KT 13/10 A301 RMK A01 T01290103  RH  084%=      5-min Rain = 0
KHO1 221456Z 20017KT 13/10 A301 RMK A01 T01290104  RH  085%=      5-min Rain = 0
KHO1 221457Z 20017KT 13/11 A301 RMK A01 T01290105  RH  085%=      5-min Rain = 0
KHO1 221458Z 19016KT 13/10 A301 RMK A01 T01280104  RH  085%=      5-min Rain = 0
KHO1 221459Z 20016KT 13/10 A301 RMK A01 T01280104  RH  086%=      5-min Rain = 0
KHO1 221500Z 20015KT 13/10 A301 RMK A01 T01270104  RH  086%=      5-min Rain = 0
KHO1 221501Z 19017KT 13/10 A301 RMK A01 T01270104  RH  086%=      5-min Rain = 0
KHO1 221502Z 19015KT 13/10 A301 RMK A01 T01270104  RH  086%=      5-min Rain = 0
KHO1 221503Z 20015KT 13/10 A301 RMK A01 T01270104  RH  086%=      5-min Rain = 0
KHO1 221504Z 20016KT 13/10 A301 RMK A01 T01270104  RH  086%=      5-min Rain = 0
KHO1 221505Z 20015KT 13/10 A301 RMK A01 T01270104  RH  086%=      5-min Rain = 0
KHO1 221506Z 20017KT 13/10 A301 RMK A01 T01270103  RH  085%=      5-min Rain = 0
KHO1 221507Z 19016KT 13/10 A301 RMK A01 T01270103  RH  085%=      5-min Rain = 0
KHO1 221508Z 19017KT 13/10 A301 RMK A01 T01270103  RH  085%=      5-min Rain = 0
KHO1 221509Z 19015G20KT 13/10 A301 RMK A01 T01280102  RH  084%=      5-min Rain = 0
KHO1 221510Z 19017KT 13/10 A301 RMK A01 T01280102  RH  084%=      5-min Rain = 0
KHO1 221511Z 18015KT 13/10 A301 RMK A01 T01280102  RH  084%=      5-min Rain = 0
KHO1 221512Z 19015KT 13/10 A301 RMK A01 T01280102  RH  084%=      5-min Rain = 0
KHO1 221513Z 19018KT 13/10 A301 RMK A01 T01280101  RH  083%=      5-min Rain = 0
KHO1 221514Z 19016KT 13/10 A301 RMK A01 T01280101  RH  083%=      5-min Rain = 0
KHO1 221515Z 19015KT 13/10 A301 RMK A01 T01280101  RH  084%=      5-min Rain = 0
KHO1 221516Z 19014KT 13/10 A301 RMK A01 T01280101  RH  084%=      5-min Rain = 0
KHO1 221517Z 19014KT 13/10 A301 RMK A01 T01280101  RH  084%=      5-min Rain = 0
KHO1 221518Z 18015KT 13/10 A301 RMK A01 T01290101  RH  083%=      5-min Rain = 0
KHO1 221519Z 19014KT 13/10 A301 RMK A01 T01290101  RH  083%=      5-min Rain = 0
KHO1 221520Z 19015G20KT 13/10 A301 RMK A01 T01300102  RH  083%=      5-min Rain = 0
KHO1 221521Z 18015KT 13/10 A301 RMK A01 T01300101  RH  082%=      5-min Rain = 0
KHO1 221522Z 18014KT 13/10 A301 RMK A01 T01310102  RH  082%=      5-min Rain = 0
KHO1 221523Z 18012KT 13/10 A301 RMK A01 T01330103  RH  082%=      5-min Rain = 0
KHO1 221524Z 19015KT 14/10 A301 RMK A01 T01350103  RH  081%=      5-min Rain = 0
KHO1 221525Z 19018KT 14/10 A301 RMK A01 T01350100  RH  079%=      5-min Rain = 0
KHO1 221526Z 19018KT 14/10 A301 RMK A01 T01350099  RH  079%=      5-min Rain = 0
KHO1 221527Z 18018KT 14/10 A301 RMK A01 T01350098  RH  079%=      5-min Rain = 0
KHO1 221528Z 19015KT 14/10 A301 RMK A01 T01360100  RH  079%=      5-min Rain = 0
KHO1 221529Z 19020KT 14/10 A301 RMK A01 T01370098  RH  077%=      5-min Rain = 0
KHO1 221530Z 19017KT 14/10 A301 RMK A01 T01370099  RH  078%=      5-min Rain = 0
KHO1 221531Z 19015KT 14/10 A301 RMK A01 T01370099  RH  078%=      5-min Rain = 0
KHO1 221532Z 19017KT 14/10 A301 RMK A01 T01360098  RH  077%=      5-min Rain = 0
KHO1 221533Z 19018G23KT 14/10 A301 RMK A01 T01360097  RH  077%=      5-min Rain = 0
KHO1 221534Z 19017KT 14/10 A301 RMK A01 T01350097  RH  078%=      5-min Rain = 0
KHO1 221535Z 18016KT 14/10 A301 RMK A01 T01360098  RH  078%=      5-min Rain = 0
KHO1 221536Z 18017KT 14/10 A301 RMK A01 T01360097  RH  077%=      5-min Rain = 0
KHO1 221537Z 19018G23KT 14/10 A3009 RMK A01 T01360097  RH  077%=      5-min Rain = 0
KHO1 221538Z 19019KT 14/10 A3009 RMK A01 T01360097  RH  077%=      5-min Rain = 0
KHO1 221539Z 18018KT 14/10 A3009 RMK A01 T01360097  RH  077%=      5-min Rain = 0
KHO1 221540Z 18017KT 14/10 A3009 RMK A01 T01360096  RH  077%=      5-min Rain = 0
KHO1 221541Z 18020G25KT 14/10 A3009 RMK A01 T01360096  RH  077%=      5-min Rain = 0
KHO1 221542Z 18022KT 14/10 A3009 RMK A01 T01360096  RH  077%=      5-min Rain = 0
KHO1 221543Z 18016KT 14/10 A3009 RMK A01 T01350096  RH  077%=      5-min Rain = 0
KHO1 221544Z 18016KT 14/10 A3009 RMK A01 T01370098  RH  077%=      5-min Rain = 0
KHO1 221545Z 18019KT 14/10 A3009 RMK A01 T01370097  RH  077%=      5-min Rain = 0
KHO1 221546Z 18021KT 14/10 A3009 RMK A01 T01390098  RH  076%=      5-min Rain = 0
KHO1 221547Z 18020KT 14/10 A3009 RMK A01 T01390097  RH  076%=      5-min Rain = 0
KHO1 221548Z 18019KT 14/10 A3009 RMK A01 T01390098  RH  076%=      5-min Rain = 0
KHO1 221549Z 18015KT 14/10 A3009 RMK A01 T01410099  RH  076%=      5-min Rain = 0
KHO1 221550Z 18016KT 14/10 A3009 RMK A01 T01430100  RH  075%=      5-min Rain = 0
KHO1 221551Z 19018KT 14/10 A3009 RMK A01 T01430099  RH  075%=      5-min Rain = 0
KHO1 221552Z 18018KT 14/10 A3009 RMK A01 T01440098  RH  074%=      5-min Rain = 0
KHO1 221553Z 18017KT 14/10 A3009 RMK A01 T01430098  RH  074%=      5-min Rain = 0
KHO1 221554Z 17015KT 14/10 A3009 RMK A01 T01430098  RH  074%=      5-min Rain = 0
KHO1 221555Z 18019KT 14/10 A3009 RMK A01 T01430098  RH  074%=      5-min Rain = 0
KHO1 221556Z 18018KT 14/10 A3009 RMK A01 T01430098  RH  074%=      5-min Rain = 0
KHO1 221557Z 17018KT 14/10 A3009 RMK A01 T01430098  RH  074%=      5-min Rain = 0
KHO1 221558Z 17017KT 14/10 A3009 RMK A01 T01440098  RH  074%=      5-min Rain = 0
KHO1 221559Z 17017KT 15/10 A3009 RMK A01 T01450099  RH  074%=      5-min Rain = 0
KHO1 221600Z 17020KT 14/10 A3009 RMK A01 T01440097  RH  073%=      5-min Rain = 0
KHO1 221601Z 18017KT 14/10 A3009 RMK A01 T01430097  RH  074%=      5-min Rain = 0
KHO1 221602Z 17017G23KT 15/10 A3009 RMK A01 T01450098  RH  074%=      5-min Rain = 0
KHO1 221603Z 18020KT 15/10 A3009 RMK A01 T01460097  RH  073%=      5-min Rain = 0
KHO1 221604Z 17019KT 15/10 A3009 RMK A01 T01470098  RH  072%=      5-min Rain = 0
KHO1 221605Z 17022KT 15/10 A3009 RMK A01 T01480098  RH  072%=      5-min Rain = 0
KHO1 221606Z 18020KT 15/10 A3009 RMK A01 T01490098  RH  072%=      5-min Rain = 0
KHO1 221607Z 18020G25KT 15/10 A3009 RMK A01 T01510098  RH  071%=      5-min Rain = 0
KHO1 221608Z 18022KT 15/10 A3009 RMK A01 T01500097  RH  071%=      5-min Rain = 0
KHO1 221609Z 17019KT 15/10 A3009 RMK A01 T01500099  RH  071%=      5-min Rain = 0
KHO1 221610Z 17019KT 15/10 A3009 RMK A01 T01500097  RH  070%=      5-min Rain = 0
KHO1 221611Z 18019G24KT 15/10 A3009 RMK A01 T01510099  RH  071%=      5-min Rain = 0
KHO1 221612Z 18019KT 15/10 A3009 RMK A01 T01530100  RH  070%=      5-min Rain = 0
KHO1 221613Z 17017KT 16/10 A3009 RMK A01 T01560100  RH  070%=      5-min Rain = 0
KHO1 221614Z 17020KT 15/10 A3009 RMK A01 T01530097  RH  069%=      5-min Rain = 0
KHO1 221615Z 17017KT 15/10 A3009 RMK A01 T01520097  RH  070%=      5-min Rain = 0
KHO1 221616Z 17019KT 15/10 A3009 RMK A01 T01530097  RH  069%=      5-min Rain = 0
KHO1 221617Z 18020G25KT 15/10 A3009 RMK A01 T01540097  RH  069%=      5-min Rain = 0
KHO1 221618Z 18021KT 15/10 A3009 RMK A01 T01530096  RH  069%=      5-min Rain = 0
KHO1 221619Z 18021KT 15/10 A3009 RMK A01 T01530097  RH  069%=      5-min Rain = 0
KHO1 221620Z 17018KT 15/10 A3009 RMK A01 T01530097  RH  069%=      5-min Rain = 0
KHO1 221621Z 18020KT 15/10 A3009 RMK A01 T01540098  RH  069%=      5-min Rain = 0
KHO1 221622Z 17021G26KT 16/10 A3009 RMK A01 T01560098  RH  068%=      5-min Rain = 0
KHO1 221623Z 18020KT 16/10 A3009 RMK A01 T01560097  RH  068%=      5-min Rain = 0
KHO1 221624Z 18017KT 16/10 A3009 RMK A01 T01600100  RH  067%=      5-min Rain = 0
KHO1 221625Z 18020KT 16/10 A3009 RMK A01 T01610098  RH  066%=      5-min Rain = 0
KHO1 221626Z 18018KT 16/10 A3009 RMK A01 T01600098  RH  067%=      5-min Rain = 0
KHO1 221627Z 19020KT 16/10 A3009 RMK A01 T01610097  RH  066%=      5-min Rain = 0
KHO1 221628Z 18018KT 16/10 A3009 RMK A01 T01620097  RH  066%=      5-min Rain = 0
KHO1 221629Z 17019KT 16/10 A3009 RMK A01 T01610096  RH  065%=      5-min Rain = 0
KHO1 221630Z 17018KT 16/10 A3009 RMK A01 T01610097  RH  066%=      5-min Rain = 0
KHO1 221631Z 17019KT 16/10 A3009 RMK A01 T01640099  RH  065%=      5-min Rain = 0
KHO1 221632Z 18018G23KT 17/10 A3009 RMK A01 T01660100  RH  065%=      5-min Rain = 0
KHO1 221633Z 17019KT 16/10 A3009 RMK A01 T01640098  RH  065%=      5-min Rain = 0
KHO1 221634Z 18019G24KT 16/10 A3009 RMK A01 T01640098  RH  065%=      5-min Rain = 0
KHO1 221635Z 17019G24KT 16/10 A3009 RMK A01 T01630096  RH  065%=      5-min Rain = 0
KHO1 221636Z 18020G26KT 16/10 A3009 RMK A01 T01630096  RH  065%=      5-min Rain = 0
KHO1 221637Z 18020G26KT 16/10 A3009 RMK A01 T01620097  RH  065%=      5-min Rain = 0
KHO1 221638Z 19022KT 16/10 A3009 RMK A01 T01630097  RH  065%=      5-min Rain = 0
KHO1 221639Z 18021KT 16/10 A3009 RMK A01 T01620097  RH  065%=      5-min Rain = 0
KHO1 221640Z 17019G24KT 16/10 A3009 RMK A01 T01610097  RH  066%=      5-min Rain = 0
KHO1 221641Z 18017KT 16/10 A3009 RMK A01 T01620098  RH  066%=      5-min Rain = 0
KHO1 221642Z 18018G24KT 16/10 A3009 RMK A01 T01640097  RH  065%=      5-min Rain = 0
KHO1 221643Z 18022G27KT 16/10 A3009 RMK A01 T01640095  RH  064%=      5-min Rain = 0
KHO1 221644Z 18021KT 16/10 A3009 RMK A01 T01630096  RH  065%=      5-min Rain = 0
KHO1 221645Z 17020KT 16/10 A3009 RMK A01 T01630097  RH  065%=      5-min Rain = 0
KHO1 221646Z 16018KT 16/10 A3009 RMK A01 T01620097  RH  065%=      5-min Rain = 0
KHO1 221647Z 17018KT 16/10 A3009 RMK A01 T01600095  RH  065%=      5-min Rain = 0
KHO1 221648Z 16021KT 16/10 A3009 RMK A01 T01610098  RH  066%=      5-min Rain = 0
KHO1 221649Z 16022KT 16/10 A3009 RMK A01 T01610096  RH  065%=      5-min Rain = 0
KHO1 221650Z 17021KT 16/10 A3009 RMK A01 T01610096  RH  065%=      5-min Rain = 0
KHO1 221651Z 17017KT 16/10 A3009 RMK A01 T01640099  RH  066%=      5-min Rain = 0
KHO1 221652Z 17017KT 17/10 A3009 RMK A01 T01680100  RH  064%=      5-min Rain = 0
KHO1 221653Z 18016G21KT 17/10 A3009 RMK A01 T01700101  RH  063%=      5-min Rain = 0
KHO1 221654Z 17016KT 17/10 A3009 RMK A01 T01740102  RH  063%=      5-min Rain = 0
KHO1 221655Z 16016KT 18/10 A3009 RMK A01 T01750101  RH  062%=      5-min Rain = 0
KHO1 221656Z 17019KT 18/10 A3009 RMK A01 T01750097  RH  060%=      5-min Rain = 0
KHO1 221657Z 17020KT 17/10 A3009 RMK A01 T01720096  RH  061%=      5-min Rain = 0
KHO1 221658Z 17017KT 17/10 A3009 RMK A01 T01720098  RH  062%=      5-min Rain = 0
KHO1 221659Z 17020KT 17/10 A3009 RMK A01 T01720096  RH  061%=      5-min Rain = 0
KHO1 221700Z 17020KT 17/10 A3009 RMK A01 T01710096  RH  061%=      5-min Rain = 0
KHO1 221701Z 16018KT 17/10 A3009 RMK A01 T01680095  RH  062%=      5-min Rain = 0
KHO1 221702Z 17018KT 17/10 A3009 RMK A01 T01660095  RH  063%=      5-min Rain = 0
KHO1 221703Z 16015G20KT 17/10 A3009 RMK A01 T01650096  RH  064%=      5-min Rain = 0
KHO1 221704Z 17018KT 17/10 A3009 RMK A01 T01660098  RH  064%=      5-min Rain = 0
KHO1 221705Z 17017KT 17/10 A3009 RMK A01 T01650098  RH  065%=      5-min Rain = 0
KHO1 221706Z 18013G18KT 17/10 A3009 RMK A01 T01670100  RH  065%=      5-min Rain = 0
KHO1 221707Z 19016KT 17/10 A3009 RMK A01 T01680099  RH  064%=      5-min Rain = 0
KHO1 221708Z 18016KT 17/10 A3009 RMK A01 T01660098  RH  064%=      5-min Rain = 0
KHO1 221709Z 19016KT 17/10 A3009 RMK A01 T01650098  RH  065%=      5-min Rain = 0
KHO1 221710Z 19016KT 17/10 A3009 RMK A01 T01680101  RH  065%=      5-min Rain = 0
KHO1 221711Z 18018KT 17/10 A3009 RMK A01 T01680098  RH  063%=      5-min Rain = 0
KHO1 221712Z 18017KT 17/10 A3009 RMK A01 T01670097  RH  063%=      5-min Rain = 0
KHO1 221713Z 18020G25KT 17/10 A3009 RMK A01 T01680097  RH  063%=      5-min Rain = 0
KHO1 221714Z 17021KT 17/10 A3009 RMK A01 T01660095  RH  063%=      5-min Rain = 0
KHO1 221715Z 17018G24KT 17/10 A3009 RMK A01 T01660095  RH  063%=      5-min Rain = 0
KHO1 221716Z 18018KT 17/10 A3009 RMK A01 T01680098  RH  063%=      5-min Rain = 0
KHO1 221717Z 19019KT 17/10 A3009 RMK A01 T01660097  RH  063%=      5-min Rain = 0
KHO1 221718Z 19019KT 16/10 A3009 RMK A01 T01630097  RH  065%=      5-min Rain = 0
KHO1 221719Z 18018KT 16/10 A3009 RMK A01 T01630098  RH  065%=      5-min Rain = 0
KHO1 221720Z 19019G24KT 16/10 A3009 RMK A01 T01640098  RH  065%=      5-min Rain = 0
KHO1 221721Z 18020KT 16/10 A3009 RMK A01 T01640095  RH  064%=      5-min Rain = 0
KHO1 221722Z 18023KT 16/09 A3009 RMK A01 T01630094  RH  063%=      5-min Rain = 0
KHO1 221723Z 18018G23KT 16/10 A3009 RMK A01 T01640096  RH  064%=      5-min Rain = 0
KHO1 221724Z 17022KT 17/10 A3009 RMK A01 T01650095  RH  063%=      5-min Rain = 0
KHO1 221725Z 18021KT 16/10 A3009 RMK A01 T01630095  RH  064%=      5-min Rain = 0
KHO1 221726Z 17019KT 16/10 A3009 RMK A01 T01640096  RH  064%=      5-min Rain = 0
KHO1 221727Z 18016KT 17/10 A3008 RMK A01 T01660098  RH  064%=      5-min Rain = 0
KHO1 221728Z 17017KT 17/10 A3008 RMK A01 T01660095  RH  063%=      5-min Rain = 0
KHO1 221729Z 18017KT 17/10 A3008 RMK A01 T01660098  RH  064%=      5-min Rain = 0
KHO1 221730Z 19016KT 17/10 A3008 RMK A01 T01680099  RH  064%=      5-min Rain = 0
KHO1 221731Z 18018KT 17/10 A3008 RMK A01 T01660095  RH  063%=      5-min Rain = 0
KHO1 221732Z 17017KT 17/10 A3008 RMK A01 T01650096  RH  063%=      5-min Rain = 0
KHO1 221733Z 17016KT 17/10 A3008 RMK A01 T01670098  RH  064%=      5-min Rain = 0
KHO1 221734Z 18019KT 17/10 A3008 RMK A01 T01690098  RH  063%=      5-min Rain = 0
KHO1 221735Z 19018KT 17/10 A3008 RMK A01 T01660097  RH  063%=      5-min Rain = 0
KHO1 221736Z 18016KT 16/10 A3008 RMK A01 T01640096  RH  064%=      5-min Rain = 0
KHO1 221737Z 17018KT 16/10 A3008 RMK A01 T01640097  RH  064%=      5-min Rain = 0
KHO1 221738Z 18019KT 17/10 A3008 RMK A01 T01650097  RH  064%=      5-min Rain = 0
KHO1 221739Z 19015G20KT 16/10 A3008 RMK A01 T01640097  RH  064%=      5-min Rain = 0
KHO1 221740Z 19017KT 17/10 A3008 RMK A01 T01650097  RH  064%=      5-min Rain = 0
KHO1 221741Z 19018KT 16/10 A3008 RMK A01 T01640096  RH  064%=      5-min Rain = 0
KHO1 221742Z 18015KT 16/10 A3008 RMK A01 T01630098  RH  065%=      5-min Rain = 0
KHO1 221743Z 19016KT 17/10 A3008 RMK A01 T01660100  RH  065%=      5-min Rain = 0
KHO1 221744Z 18017KT 17/10 A3008 RMK A01 T01670099  RH  064%=      5-min Rain = 0
KHO1 221745Z 19018KT 17/10 A3008 RMK A01 T01660099  RH  065%=      5-min Rain = 0
KHO1 221746Z 19017KT 17/10 A3008 RMK A01 T01660099  RH  064%=      5-min Rain = 0
KHO1 221747Z 18018KT 17/10 A3008 RMK A01 T01650099  RH  065%=      5-min Rain = 0
KHO1 221748Z 18017KT 17/10 A3008 RMK A01 T01650099  RH  065%=      5-min Rain = 0
KHO1 221749Z 18016KT 16/10 A3008 RMK A01 T01640098  RH  065%=      5-min Rain = 0
KHO1 221750Z 18016KT 16/10 A3008 RMK A01 T01640098  RH  065%=      5-min Rain = 0
KHO1 221751Z 18016KT 17/10 A3008 RMK A01 T01650099  RH  065%=      5-min Rain = 0
KHO1 221752Z 18019KT 17/10 A3008 RMK A01 T01670100  RH  065%=      5-min Rain = 0
KHO1 221753Z 18020KT 17/10 A3008 RMK A01 T01660098  RH  064%=      5-min Rain = 0
KHO1 221754Z 19019KT 17/10 A3008 RMK A01 T01670099  RH  064%=      5-min Rain = 0
KHO1 221755Z 19017KT 17/10 A3007 RMK A01 T01670100  RH  064%=      5-min Rain = 0
KHO1 221756Z 18018KT 17/10 A3007 RMK A01 T01690099  RH  064%=      5-min Rain = 0
KHO1 221757Z 18018KT 17/10 A3007 RMK A01 T01680099  RH  063%=      5-min Rain = 0
KHO1 221758Z 19018KT 17/10 A3007 RMK A01 T01670098  RH  064%=      5-min Rain = 0
KHO1 221759Z 19017G22KT 17/10 A3007 RMK A01 T01660098  RH  064%=      5-min Rain = 0
KHO1 221800Z 19018KT 17/10 A3007 RMK A01 T01690099  RH  063%=      5-min Rain = 0
KHO1 221801Z 19018KT 17/10 A3007 RMK A01 T01680097  RH  063%=      5-min Rain = 0
KHO1 221802Z 19019KT 17/10 A3007 RMK A01 T01660096  RH  063%=      5-min Rain = 0
KHO1 221803Z 17020KT 17/10 A3007 RMK A01 T01680099  RH  064%=      5-min Rain = 0
KHO1 221804Z 18018G24KT 17/10 A3008 RMK A01 T01690098  RH  063%=      5-min Rain = 0
KHO1 221805Z 18015KT 17/10 A3007 RMK A01 T01700100  RH  064%=      5-min Rain = 0
KHO1 221806Z 19018KT 17/10 A3007 RMK A01 T01700099  RH  063%=      5-min Rain = 0
KHO1 221807Z 19016KT 17/10 A3007 RMK A01 T01670097  RH  063%=      5-min Rain = 0
KHO1 221808Z 18018KT 17/10 A3007 RMK A01 T01670099  RH  064%=      5-min Rain = 0
KHO1 221809Z 18017KT 17/10 A3007 RMK A01 T01660098  RH  064%=      5-min Rain = 0
KHO1 221810Z 18016KT 17/10 A3007 RMK A01 T01670100  RH  064%=      5-min Rain = 0
KHO1 221811Z 18015KT 17/10 A3007 RMK A01 T01700101  RH  064%=      5-min Rain = 0
KHO1 221812Z 18015KT 17/10 A3007 RMK A01 T01700099  RH  063%=      5-min Rain = 0
KHO1 221813Z 18015KT 17/10 A3007 RMK A01 T01680098  RH  063%=      5-min Rain = 0
KHO1 221814Z 18016KT 17/10 A3007 RMK A01 T01670096  RH  063%=      5-min Rain = 0
KHO1 221815Z 17015KT 17/10 A3007 RMK A01 T01700100  RH  064%=      5-min Rain = 0
KHO1 221816Z 17018G23KT 17/10 A3007 RMK A01 T01730097  RH  061%=      5-min Rain = 0
KHO1 221817Z 17018G23KT 17/10 A3007 RMK A01 T01720096  RH  061%=      5-min Rain = 0
KHO1 221818Z 17019G24KT 17/09 A3007 RMK A01 T01700094  RH  061%=      5-min Rain = 0
KHO1 221819Z 18017KT 17/09 A3007 RMK A01 T01690094  RH  061%=      5-min Rain = 0
KHO1 221820Z 19016KT 17/10 A3007 RMK A01 T01690098  RH  063%=      5-min Rain = 0
KHO1 221821Z 19015KT 17/10 A3006 RMK A01 T01680099  RH  064%=      5-min Rain = 0
KHO1 221822Z 17017KT 17/10 A3006 RMK A01 T01680097  RH  063%=      5-min Rain = 0
KHO1 221823Z 18017KT 17/10 A3006 RMK A01 T01680097  RH  063%=      5-min Rain = 0
KHO1 221824Z 18018KT 17/10 A3006 RMK A01 T01680096  RH  062%=      5-min Rain = 0
KHO1 221825Z 19015KT 17/10 A3006 RMK A01 T01680098  RH  063%=      5-min Rain = 0
KHO1 221826Z 18016KT 17/10 A3006 RMK A01 T01690099  RH  063%=      5-min Rain = 0
KHO1 221827Z 18017KT 17/10 A3006 RMK A01 T01680097  RH  063%=      5-min Rain = 0
KHO1 221828Z 18016KT 17/10 A3006 RMK A01 T01680097  RH  063%=      5-min Rain = 0
KHO1 221829Z 17019KT 17/09 A3006 RMK A01 T01680094  RH  062%=      5-min Rain = 0
KHO1 221830Z 17020KT 17/09 A3006 RMK A01 T01650094  RH  063%=      5-min Rain = 0
KHO1 221831Z 17018KT 16/09 A3005 RMK A01 T01640094  RH  063%=      5-min Rain = 0
KHO1 221832Z 18017KT 16/10 A3005 RMK A01 T01640096  RH  064%=      5-min Rain = 0
KHO1 221833Z 16019KT 17/10 A3005 RMK A01 T01670097  RH  064%=      5-min Rain = 0
KHO1 221834Z 18017KT 17/10 A3005 RMK A01 T01690097  RH  062%=      5-min Rain = 0
KHO1 221835Z 17019KT 17/10 A3005 RMK A01 T01710098  RH  062%=      5-min Rain = 0
KHO1 221836Z 18016KT 17/10 A3005 RMK A01 T01710099  RH  062%=      5-min Rain = 0
KHO1 221837Z 17017KT 17/10 A3005 RMK A01 T01730099  RH  062%=      5-min Rain = 0
KHO1 221838Z 16021G26KT 17/10 A3005 RMK A01 T01740095  RH  060%=      5-min Rain = 0
KHO1 221839Z 16017KT 17/10 A3005 RMK A01 T01730096  RH  060%=      5-min Rain = 0
KHO1 221840Z 17020KT 17/10 A3005 RMK A01 T01710095  RH  061%=      5-min Rain = 0
KHO1 221841Z 17018KT 17/10 A3005 RMK A01 T01720096  RH  061%=      5-min Rain = 0
KHO1 221842Z 17016KT 18/10 A3004 RMK A01 T01750100  RH  061%=      5-min Rain = 0
KHO1 221843Z 17020KT 18/10 A3004 RMK A01 T01750096  RH  060%=      5-min Rain = 0
KHO1 221844Z 17020KT 18/10 A3004 RMK A01 T01750096  RH  060%=      5-min Rain = 0
KHO1 221845Z 16022KT 18/10 A3004 RMK A01 T01770097  RH  060%=      5-min Rain = 0
KHO1 221846Z 16018KT 18/10 A3004 RMK A01 T01780099  RH  060%=      5-min Rain = 0
KHO1 221847Z 17020KT 18/10 A3004 RMK A01 T01790097  RH  059%=      5-min Rain = 0
KHO1 221848Z 17018G23KT 17/10 A3004 RMK A01 T01730095  RH  060%=      5-min Rain = 0
KHO1 221849Z 17016KT 18/10 A3004 RMK A01 T01750098  RH  060%=      5-min Rain = 0
KHO1 221850Z 18019KT 18/09 A3004 RMK A01 T01750094  RH  059%=      5-min Rain = 0
KHO1 221851Z 18018KT 17/10 A3004 RMK A01 T01720095  RH  060%=      5-min Rain = 0
KHO1 221852Z 18018KT 17/10 A3004 RMK A01 T01720096  RH  061%=      5-min Rain = 0
KHO1 221853Z 18020KT 17/10 A3005 RMK A01 T01720096  RH  061%=      5-min Rain = 0
KHO1 221854Z 18018KT 17/10 A3004 RMK A01 T01690095  RH  062%=      5-min Rain = 0
KHO1 221855Z 18017KT 17/10 A3004 RMK A01 T01690097  RH  062%=      5-min Rain = 0
KHO1 221856Z 18022KT 17/10 A3004 RMK A01 T01680097  RH  063%=      5-min Rain = 0
KHO1 221857Z 18017G23KT 17/10 A3005 RMK A01 T01670098  RH  064%=      5-min Rain = 0
KHO1 221858Z 18015G20KT 17/10 A3004 RMK A01 T01690099  RH  064%=      5-min Rain = 0
KHO1 221859Z 18019KT 17/10 A3005 RMK A01 T01670097  RH  063%=      5-min Rain = 0
KHO1 221900Z 18020G26KT 17/10 A3004 RMK A01 T01660098  RH  064%=      5-min Rain = 0
KHO1 221901Z 18018KT 17/10 A3004 RMK A01 T01660098  RH  064%=      5-min Rain = 0
KHO1 221902Z 19015G21KT 17/10 A3004 RMK A01 T01660098  RH  064%=      5-min Rain = 0
KHO1 221903Z 18020KT 17/10 A3004 RMK A01 T01650096  RH  064%=      5-min Rain = 0
KHO1 221904Z 18016G21KT 17/10 A3004 RMK A01 T01650096  RH  064%=      5-min Rain = 0
KHO1 221905Z 17019KT 16/09 A3004 RMK A01 T01640094  RH  063%=      5-min Rain = 0
KHO1 221906Z 18017KT 16/10 A3004 RMK A01 T01620095  RH  065%=      5-min Rain = 0
KHO1 221907Z 18017KT 16/10 A3004 RMK A01 T01630098  RH  065%=      5-min Rain = 0
KHO1 221908Z 17016KT 16/10 A3004 RMK A01 T01640097  RH  065%=      5-min Rain = 0
KHO1 221909Z 18017KT 17/10 A3004 RMK A01 T01660099  RH  064%=      5-min Rain = 0
KHO1 221910Z 18019KT 17/10 A3004 RMK A01 T01660096  RH  063%=      5-min Rain = 0
KHO1 221911Z 18019KT 16/10 A3004 RMK A01 T01640096  RH  064%=      5-min Rain = 0
KHO1 221912Z 18018KT 16/10 A3004 RMK A01 T01640097  RH  064%=      5-min Rain = 0
KHO1 221913Z 18018KT 17/10 A3003 RMK A01 T01650098  RH  064%=      5-min Rain = 0
KHO1 221914Z 17018KT 17/10 A3003 RMK A01 T01670099  RH  064%=      5-min Rain = 0
KHO1 221915Z 18018KT 17/10 A3003 RMK A01 T01700099  RH  063%=      5-min Rain = 0
KHO1 221916Z 19015KT 17/10 A3003 RMK A01 T01700098  RH  062%=      5-min Rain = 0
KHO1 221917Z 17019KT 17/10 A3003 RMK A01 T01720099  RH  062%=      5-min Rain = 0
KHO1 221918Z 17018KT 17/10 A3003 RMK A01 T01710097  RH  062%=      5-min Rain = 0
KHO1 221919Z 17018KT 17/10 A3003 RMK A01 T01700098  RH  062%=      5-min Rain = 0
KHO1 221920Z 17015KT 17/10 A3003 RMK A01 T01710099  RH  062%=      5-min Rain = 0
KHO1 221921Z 17019KT 17/10 A3003 RMK A01 T01720099  RH  062%=      5-min Rain = 0
KHO1 221922Z 16017G22KT 17/10 A3003 RMK A01 T01730100  RH  062%=      5-min Rain = 0
KHO1 221923Z 16019G25KT 17/10 A3002 RMK A01 T01740098  RH  061%=      5-min Rain = 0
KHO1 221924Z 16023KT 17/10 A3002 RMK A01 T01720096  RH  061%=      5-min Rain = 0
KHO1 221925Z 17020G25KT 17/10 A3002 RMK A01 T01690096  RH  062%=      5-min Rain = 0
KHO1 221926Z 17019KT 17/10 A3002 RMK A01 T01690097  RH  062%=      5-min Rain = 0
KHO1 221927Z 18019KT 17/10 A3002 RMK A01 T01690097  RH  063%=      5-min Rain = 0
KHO1 221928Z 17019KT 17/10 A3002 RMK A01 T01670096  RH  063%=      5-min Rain = 0
KHO1 221929Z 18015KT 17/10 A3002 RMK A01 T01670098  RH  064%=      5-min Rain = 0
KHO1 221930Z 18017KT 17/10 A3002 RMK A01 T01680100  RH  064%=      5-min Rain = 0
KHO1 221931Z 16018KT 17/10 A3002 RMK A01 T01690100  RH  064%=      5-min Rain = 0
KHO1 221932Z 15019KT 17/10 A3002 RMK A01 T01680100  RH  064%=      5-min Rain = 0
KHO1 221933Z 16016KT 17/10 A3002 RMK A01 T01690101  RH  064%=      5-min Rain = 0
KHO1 221934Z 18017KT 17/10 A3002 RMK A01 T01690100  RH  064%=      5-min Rain = 0
KHO1 221935Z 18016KT 17/10 A3002 RMK A01 T01680099  RH  064%=      5-min Rain = 0
KHO1 221936Z 17016KT 17/10 A3002 RMK A01 T01670100  RH  064%=      5-min Rain = 0
KHO1 221937Z 18016KT 17/10 A3002 RMK A01 T01700103  RH  065%=      5-min Rain = 0
KHO1 221938Z 17018KT 17/10 A3002 RMK A01 T01710101  RH  063%=      5-min Rain = 0
KHO1 221939Z 16019KT 17/10 A3002 RMK A01 T01690100  RH  064%=      5-min Rain = 0
KHO1 221940Z 16015KT 17/10 A3002 RMK A01 T01690101  RH  064%=      5-min Rain = 0
KHO1 221941Z 16016KT 17/10 A3002 RMK A01 T01680102  RH  065%=      5-min Rain = 0
KHO1 221942Z 18016KT 17/10 A3002 RMK A01 T01680101  RH  065%=      5-min Rain = 0
KHO1 221943Z 17017KT 17/10 A3002 RMK A01 T01680101  RH  064%=      5-min Rain = 0
KHO1 221944Z 17017KT 17/10 A3002 RMK A01 T01680100  RH  064%=      5-min Rain = 0
KHO1 221945Z 16016KT 17/10 A3002 RMK A01 T01660100  RH  065%=      5-min Rain = 0
KHO1 221946Z 17017KT 17/10 A3002 RMK A01 T01650101  RH  066%=      5-min Rain = 0
KHO1 221947Z 17019KT 17/10 A3002 RMK A01 T01650101  RH  066%=      5-min Rain = 0
KHO1 221948Z 16016KT 16/10 A3002 RMK A01 T01640101  RH  066%=      5-min Rain = 0
KHO1 221949Z 17014KT 17/10 A3002 RMK A01 T01650101  RH  066%=      5-min Rain = 0
KHO1 221950Z 17013KT 17/10 A3001 RMK A01 T01650102  RH  066%=      5-min Rain = 0
KHO1 221951Z 16015KT 17/10 A3001 RMK A01 T01670101  RH  065%=      5-min Rain = 0
KHO1 221952Z 17015KT 17/10 A3001 RMK A01 T01670100  RH  065%=      5-min Rain = 0
KHO1 221953Z 16015KT 17/10 A3002 RMK A01 T01680101  RH  065%=      5-min Rain = 0
KHO1 221954Z 17015KT 17/10 A3001 RMK A01 T01680101  RH  065%=      5-min Rain = 0
KHO1 221955Z 17016KT 17/10 A3001 RMK A01 T01670100  RH  065%=      5-min Rain = 0
KHO1 221956Z 17018KT 17/10 A3001 RMK A01 T01660099  RH  064%=      5-min Rain = 0
KHO1 221957Z 17014KT 17/10 A3001 RMK A01 T01670100  RH  065%=      5-min Rain = 0
KHO1 221958Z 16017KT 17/10 A3001 RMK A01 T01690100  RH  064%=      5-min Rain = 0
KHO1 221959Z 16017KT 17/10 A3001 RMK A01 T01690099  RH  063%=      5-min Rain = 0
KHO1 222000Z 16016KT 17/10 A3001 RMK A01 T01680097  RH  063%=      5-min Rain = 0
KHO1 222001Z 17017KT 17/10 A3001 RMK A01 T01680098  RH  063%=      5-min Rain = 0
KHO1 222002Z 18017KT 17/10 A3001 RMK A01 T01680097  RH  063%=      5-min Rain = 0
KHO1 222003Z 17015KT 17/10 A3001 RMK A01 T01690098  RH  063%=      5-min Rain = 0
KHO1 222004Z 17016KT 17/10 A3001 RMK A01 T01720100  RH  063%=      5-min Rain = 0
KHO1 222005Z 18017KT 17/10 A3001 RMK A01 T01720097  RH  061%=      5-min Rain = 0
KHO1 222006Z 17016G21KT 18/10 A30 RMK A01 T01750099  RH  061%=      5-min Rain = 0
KHO1 222007Z 17016KT 18/10 A30 RMK A01 T01760097  RH  060%=      5-min Rain = 0
KHO1 222008Z 18016G22KT 18/10 A30 RMK A01 T01750097  RH  060%=      5-min Rain = 0
KHO1 222009Z 18018KT 17/10 A30 RMK A01 T01740096  RH  060%=      5-min Rain = 0
KHO1 222010Z 17014KT 17/10 A30 RMK A01 T01730097  RH  061%=      5-min Rain = 0
KHO1 222011Z 18015G20KT 17/10 A30 RMK A01 T01730096  RH  060%=      5-min Rain = 0
KHO1 222012Z 18015G20KT 17/10 A30 RMK A01 T01720096  RH  061%=      5-min Rain = 0
KHO1 222013Z 18017KT 17/10 A30 RMK A01 T01740096  RH  060%=      5-min Rain = 0
KHO1 222014Z 17017KT 17/10 A30 RMK A01 T01730097  RH  061%=      5-min Rain = 0
KHO1 222015Z 17017KT 17/10 A30 RMK A01 T01730097  RH  061%=      5-min Rain = 0
KHO1 222016Z 18016KT 17/10 A30 RMK A01 T01720096  RH  061%=      5-min Rain = 0
KHO1 222017Z 16015KT 17/10 A30 RMK A01 T01720098  RH  062%=      5-min Rain = 0
KHO1 222018Z 17012KT 17/10 A30 RMK A01 T01730099  RH  062%=      5-min Rain = 0
KHO1 222019Z 18013KT 18/10 A30 RMK A01 T01760100  RH  061%=      5-min Rain = 0
KHO1 222020Z 18013KT 18/10 A30 RMK A01 T01790102  RH  061%=      5-min Rain = 0
KHO1 222021Z 17016KT 18/10 A30 RMK A01 T01810099  RH  059%=      5-min Rain = 0
KHO1 222022Z 17016G21KT 18/10 A30 RMK A01 T01810100  RH  059%=      5-min Rain = 0
KHO1 222023Z 17015KT 18/10 A30 RMK A01 T01830100  RH  059%=      5-min Rain = 0
KHO1 222024Z 17015KT 18/10 A2999 RMK A01 T01820098  RH  058%=      5-min Rain = 0
KHO1 222025Z 18016KT 18/10 A2999 RMK A01 T01810098  RH  058%=      5-min Rain = 0
KHO1 222026Z 19017KT 18/10 A2999 RMK A01 T01800098  RH  059%=      5-min Rain = 0
KHO1 222027Z 18016KT 18/10 A2999 RMK A01 T01780097  RH  059%=      5-min Rain = 0
KHO1 222028Z 17017KT 18/10 A2999 RMK A01 T01780097  RH  059%=      5-min Rain = 0
KHO1 222029Z 17018KT 18/10 A2999 RMK A01 T01770096  RH  059%=      5-min Rain = 0
KHO1 222030Z 18015G20KT 18/10 A2999 RMK A01 T01770098  RH  060%=      5-min Rain = 0
KHO1 222031Z 18017KT 18/10 A2999 RMK A01 T01790099  RH  059%=      5-min Rain = 0
KHO1 222032Z 17016G21KT 18/10 A2999 RMK A01 T01820100  RH  059%=      5-min Rain = 0
KHO1 222033Z 17018KT 18/10 A2999 RMK A01 T01830098  RH  058%=      5-min Rain = 0
KHO1 222034Z 16016KT 18/10 A2999 RMK A01 T01820097  RH  058%=      5-min Rain = 0
KHO1 222035Z 17018KT 18/10 A2999 RMK A01 T01800097  RH  058%=      5-min Rain = 0
KHO1 222036Z 17017G22KT 18/10 A2999 RMK A01 T01790097  RH  058%=      5-min Rain = 0
KHO1 222037Z 17014KT 18/10 A2999 RMK A01 T01800098  RH  059%=      5-min Rain = 0
KHO1 222038Z 18016KT 18/10 A2999 RMK A01 T01810099  RH  059%=      5-min Rain = 0
KHO1 222039Z 18014KT 18/10 A2998 RMK A01 T01810099  RH  059%=      5-min Rain = 0
KHO1 222040Z 18017KT 18/10 A2999 RMK A01 T01840100  RH  058%=      5-min Rain = 0
KHO1 222041Z 18018KT 19/10 A2998 RMK A01 T01850101  RH  058%=      5-min Rain = 0
KHO1 222042Z 17017KT 19/10 A2998 RMK A01 T01870100  RH  057%=      5-min Rain = 0
KHO1 222043Z 17015G20KT 19/10 A2998 RMK A01 T01860099  RH  057%=      5-min Rain = 0
KHO1 222044Z 18016KT 19/10 A2998 RMK A01 T01860100  RH  057%=      5-min Rain = 0
KHO1 222045Z 17020KT 19/10 A2998 RMK A01 T01860098  RH  056%=      5-min Rain = 0
KHO1 222046Z 18019KT 18/10 A2998 RMK A01 T01830096  RH  057%=      5-min Rain = 0
KHO1 222047Z 18017KT 18/10 A2998 RMK A01 T01810097  RH  058%=      5-min Rain = 0
KHO1 222048Z 18017KT 18/10 A2998 RMK A01 T01800097  RH  058%=      5-min Rain = 0
KHO1 222049Z 17015G20KT 18/10 A2998 RMK A01 T01800099  RH  059%=      5-min Rain = 0
KHO1 222050Z 18019KT 18/10 A2998 RMK A01 T01820100  RH  059%=      5-min Rain = 0
KHO1 222051Z 19017KT 18/10 A2998 RMK A01 T01830100  RH  058%=      5-min Rain = 0
KHO1 222052Z 18016KT 19/10 A2998 RMK A01 T01860101  RH  058%=      5-min Rain = 0
KHO1 222053Z 17015KT 19/10 A2998 RMK A01 T01860100  RH  057%=      5-min Rain = 0
KHO1 222054Z 18015KT 19/10 A2998 RMK A01 T01880102  RH  057%=      5-min Rain = 0
KHO1 222055Z 17019KT 19/10 A2998 RMK A01 T01890099  RH  056%=      5-min Rain = 0
KHO1 222056Z 17016KT 19/10 A2998 RMK A01 T01880099  RH  056%=      5-min Rain = 0
KHO1 222057Z 17015KT 19/10 A2998 RMK A01 T01890101  RH  057%=      5-min Rain = 0
KHO1 222058Z 17017G23KT 19/10 A2998 RMK A01 T01920100  RH  055%=      5-min Rain = 0
KHO1 222059Z 17018KT 19/10 A2998 RMK A01 T01890098  RH  055%=      5-min Rain = 0
KHO1 222100Z 17016KT 19/10 A2998 RMK A01 T01860097  RH  056%=      5-min Rain = 0
KHO1 222101Z 17014KT 18/10 A2997 RMK A01 T01840098  RH  057%=      5-min Rain = 0
KHO1 222102Z 16013KT 19/10 A2997 RMK A01 T01860100  RH  057%=      5-min Rain = 0
KHO1 222103Z 16016KT 19/10 A2997 RMK A01 T01880100  RH  057%=      5-min Rain = 0
KHO1 222104Z 17017KT 19/10 A2997 RMK A01 T01880100  RH  056%=      5-min Rain = 0
KHO1 222105Z 17016KT 19/10 A2997 RMK A01 T01860098  RH  056%=      5-min Rain = 0
KHO1 222106Z 17014G19KT 19/10 A2997 RMK A01 T01860099  RH  057%=      5-min Rain = 0
KHO1 222107Z 17015KT 19/10 A2997 RMK A01 T01890099  RH  056%=      5-min Rain = 0
KHO1 222108Z 16017KT 19/10 A2997 RMK A01 T01880099  RH  056%=      5-min Rain = 0
KHO1 222109Z 16016G21KT 19/10 A2997 RMK A01 T01880099  RH  056%=      5-min Rain = 0
KHO1 222110Z 17016KT 19/10 A2997 RMK A01 T01850098  RH  057%=      5-min Rain = 0
KHO1 222111Z 16016KT 18/10 A2997 RMK A01 T01840099  RH  058%=      5-min Rain = 0
KHO1 222112Z 15016KT 19/10 A2997 RMK A01 T01850100  RH  058%=      5-min Rain = 0
KHO1 222113Z 15018KT 19/10 A2996 RMK A01 T01860101  RH  058%=      5-min Rain = 0
KHO1 222114Z 16015KT 19/10 A2997 RMK A01 T01860101  RH  058%=      5-min Rain = 0
KHO1 222115Z 17016KT 19/10 A2997 RMK A01 T01870101  RH  057%=      5-min Rain = 0
KHO1 222116Z 17015KT 19/10 A2997 RMK A01 T01890101  RH  057%=      5-min Rain = 0
KHO1 222117Z 17015KT 19/10 A2997 RMK A01 T01890099  RH  056%=      5-min Rain = 0
KHO1 222118Z 18016KT 19/10 A2997 RMK A01 T01870097  RH  056%=      5-min Rain = 0
KHO1 222119Z 18012KT 19/10 A2997 RMK A01 T01870099  RH  057%=      5-min Rain = 0
KHO1 222120Z 17013KT 19/10 A2997 RMK A01 T01910102  RH  056%=      5-min Rain = 0
KHO1 222121Z 18015KT 19/10 A2997 RMK A01 T01900096  RH  054%=      5-min Rain = 0
KHO1 222122Z 17012KT 19/10 A2997 RMK A01 T01880097  RH  055%=      5-min Rain = 0
KHO1 222123Z 16014KT 19/10 A2996 RMK A01 T01880099  RH  056%=      5-min Rain = 0
KHO1 222124Z 17013KT 19/10 A2996 RMK A01 T01890101  RH  056%=      5-min Rain = 0
KHO1 222125Z 17017KT 19/10 A2996 RMK A01 T01890097  RH  055%=      5-min Rain = 0
KHO1 222126Z 17016KT 19/10 A2996 RMK A01 T01880096  RH  055%=      5-min Rain = 0
KHO1 222127Z 17013KT 19/10 A2996 RMK A01 T01880097  RH  055%=      5-min Rain = 0
KHO1 222128Z 17013KT 19/10 A2996 RMK A01 T01880098  RH  056%=      5-min Rain = 0
KHO1 222129Z 17015KT 19/10 A2996 RMK A01 T01890098  RH  055%=      5-min Rain = 0
KHO1 222130Z 16013KT 19/10 A2996 RMK A01 T01900101  RH  056%=      5-min Rain = 0
KHO1 222131Z 17016KT 19/10 A2996 RMK A01 T01900098  RH  055%=      5-min Rain = 0
KHO1 222132Z 16017KT 19/10 A2996 RMK A01 T01870097  RH  056%=      5-min Rain = 0
KHO1 222133Z 16017KT 19/10 A2996 RMK A01 T01860098  RH  056%=      5-min Rain = 0
KHO1 222134Z 16017KT 19/10 A2996 RMK A01 T01860098  RH  057%=      5-min Rain = 0
KHO1 222135Z 16016KT 19/10 A2996 RMK A01 T01870099  RH  056%=      5-min Rain = 0
KHO1 222136Z 17015KT 19/10 A2996 RMK A01 T01890100  RH  056%=      5-min Rain = 0
KHO1 222137Z 16016KT 19/10 A2996 RMK A01 T01900098  RH  055%=      5-min Rain = 0
KHO1 222138Z 16016KT 19/10 A2996 RMK A01 T01900098  RH  055%=      5-min Rain = 0
KHO1 222139Z 16014KT 19/10 A2996 RMK A01 T01890096  RH  055%=      5-min Rain = 0
KHO1 222140Z 17011KT 19/10 A2996 RMK A01 T01880097  RH  055%=      5-min Rain = 0
KHO1 222141Z 16013KT 19/10 A2996 RMK A01 T01900099  RH  055%=      5-min Rain = 0
KHO1 222142Z 17015KT 19/10 A2996 RMK A01 T01910096  RH  054%=      5-min Rain = 0
KHO1 222143Z 17014KT 19/10 A2996 RMK A01 T01870096  RH  055%=      5-min Rain = 0
KHO1 222144Z 17014KT 19/10 A2996 RMK A01 T01860096  RH  056%=      5-min Rain = 0
KHO1 222145Z 16012KT 19/10 A2996 RMK A01 T01870099  RH  056%=      5-min Rain = 0
KHO1 222146Z 18011KT 19/10 A2996 RMK A01 T01900096  RH  054%=      5-min Rain = 0
KHO1 222147Z 17012KT 19/10 A2996 RMK A01 T01910098  RH  055%=      5-min Rain = 0
KHO1 222148Z 18015KT 19/10 A2995 RMK A01 T01910095  RH  054%=      5-min Rain = 0
KHO1 222149Z 18015KT 19/10 A2995 RMK A01 T01910095  RH  054%=      5-min Rain = 0
KHO1 222150Z 18014KT 19/10 A2995 RMK A01 T01930096  RH  053%=      5-min Rain = 0
KHO1 222151Z 17017KT 20/10 A2995 RMK A01 T01950095  RH  052%=      5-min Rain = 0
KHO1 222152Z 17019KT 20/09 A2995 RMK A01 T01950093  RH  052%=      5-min Rain = 0
KHO1 222153Z 17016KT 20/09 A2995 RMK A01 T01950090  RH  051%=      5-min Rain = 0
KHO1 222154Z 17016KT 19/09 A2995 RMK A01 T01940092  RH  052%=      5-min Rain = 0
KHO1 222155Z 17015KT 20/09 A2995 RMK A01 T01950093  RH  052%=      5-min Rain = 0
KHO1 222156Z 16015KT 20/09 A2995 RMK A01 T01950092  RH  051%=      5-min Rain = 0
KHO1 222157Z 17017KT 20/09 A2995 RMK A01 T01950089  RH  050%=      5-min Rain = 0
KHO1 222158Z 16017KT 19/09 A2995 RMK A01 T01940089  RH  051%=      5-min Rain = 0
KHO1 222159Z 16015KT 20/09 A2995 RMK A01 T01950091  RH  051%=      5-min Rain = 0
KHO1 222200Z 17018KT 19/09 A2995 RMK A01 T01940090  RH  051%=      5-min Rain = 0
KHO1 222201Z 17016KT 19/09 A2995 RMK A01 T01930092  RH  052%=      5-min Rain = 0
KHO1 222202Z 18015KT 19/09 A2995 RMK A01 T01940092  RH  051%=      5-min Rain = 0
KHO1 222203Z 17015KT 19/09 A2995 RMK A01 T01940092  RH  051%=      5-min Rain = 0
KHO1 222204Z 17015KT 19/09 A2995 RMK A01 T01940092  RH  052%=      5-min Rain = 0
KHO1 222205Z 16018KT 20/09 A2995 RMK A01 T01950093  RH  052%=      5-min Rain = 0
KHO1 222206Z 18015KT 20/09 A2995 RMK A01 T01970092  RH  050%=      5-min Rain = 0
KHO1 222207Z 18014G19KT 20/09 A2995 RMK A01 T01970091  RH  050%=      5-min Rain = 0
KHO1 222208Z 18013KT 20/09 A2995 RMK A01 T01960089  RH  050%=      5-min Rain = 0
KHO1 222209Z 18013KT 20/09 A2995 RMK A01 T01970092  RH  051%=      5-min Rain = 0
KHO1 222210Z 18016KT 20/09 A2995 RMK A01 T01980089  RH  049%=      5-min Rain = 0
KHO1 222211Z 18018KT 20/08 A2995 RMK A01 T01960082  RH  048%=      5-min Rain = 0
KHO1 222212Z 18016KT 20/09 A2995 RMK A01 T01950085  RH  049%=      5-min Rain = 0
KHO1 222213Z 18013KT 20/09 A2995 RMK A01 T01960086  RH  049%=      5-min Rain = 0
KHO1 222214Z 18015KT 20/09 A2995 RMK A01 T01950085  RH  049%=      5-min Rain = 0
KHO1 222215Z 18013KT 20/09 A2995 RMK A01 T01950085  RH  049%=      5-min Rain = 0
KHO1 222216Z 19015KT 20/09 A2995 RMK A01 T01950086  RH  049%=      5-min Rain = 0
KHO1 222217Z 18018KT 20/08 A2995 RMK A01 T01960084  RH  048%=      5-min Rain = 0
KHO1 222218Z 18015KT 20/08 A2995 RMK A01 T01960084  RH  048%=      5-min Rain = 0
KHO1 222219Z 18017KT 20/08 A2995 RMK A01 T01970083  RH  048%=      5-min Rain = 0
KHO1 222220Z 18015KT 20/08 A2995 RMK A01 T01950081  RH  048%=      5-min Rain = 0
KHO1 222221Z 18017KT 20/08 A2995 RMK A01 T01950080  RH  047%=      5-min Rain = 0
KHO1 222222Z 18015KT 19/08 A2995 RMK A01 T01940080  RH  048%=      5-min Rain = 0
KHO1 222223Z 17015KT 19/08 A2995 RMK A01 T01940081  RH  048%=      5-min Rain = 0
KHO1 222224Z 17015KT 20/08 A2995 RMK A01 T01950084  RH  049%=      5-min Rain = 0
KHO1 222225Z 17016KT 20/08 A2994 RMK A01 T01950082  RH  048%=      5-min Rain = 0
KHO1 222226Z 17014KT 20/08 A2994 RMK A01 T01960082  RH  048%=      5-min Rain = 0
KHO1 222227Z 16017KT 20/08 A2994 RMK A01 T01960082  RH  048%=      5-min Rain = 0
KHO1 222228Z 18015KT 20/09 A2994 RMK A01 T01980085  RH  048%=      5-min Rain = 0
KHO1 222229Z 18014KT 20/09 A2995 RMK A01 T01990086  RH  048%=      5-min Rain = 0
KHO1 222230Z 18013KT 20/09 A2994 RMK A01 T01990087  RH  048%=      5-min Rain = 0
KHO1 222231Z 18012G17KT 20/09 A2994 RMK A01 T01990085  RH  048%=      5-min Rain = 0
KHO1 222232Z 17016KT 20/08 A2994 RMK A01 T01990084  RH  047%=      5-min Rain = 0
KHO1 222233Z 17017KT 20/08 A2994 RMK A01 T01970083  RH  048%=      5-min Rain = 0
KHO1 222234Z 17016G21KT 20/09 A2995 RMK A01 T01960085  RH  048%=      5-min Rain = 0
KHO1 222235Z 17016KT 20/09 A2995 RMK A01 T01980086  RH  048%=      5-min Rain = 0
KHO1 222236Z 17017KT 20/09 A2995 RMK A01 T01970085  RH  048%=      5-min Rain = 0
KHO1 222237Z 17015KT 20/09 A2995 RMK A01 T01960086  RH  049%=      5-min Rain = 0
KHO1 222238Z 17013G18KT 20/09 A2995 RMK A01 T01980089  RH  049%=      5-min Rain = 0
KHO1 222239Z 18014KT 20/09 A2994 RMK A01 T02000087  RH  048%=      5-min Rain = 0
KHO1 222240Z 17017KT 20/09 A2995 RMK A01 T02010087  RH  048%=      5-min Rain = 0
KHO1 222241Z 18015KT 20/08 A2995 RMK A01 T02000084  RH  047%=      5-min Rain = 0
KHO1 222242Z 17017KT 20/08 A2995 RMK A01 T01990080  RH  046%=      5-min Rain = 0
KHO1 222243Z 17015KT 20/08 A2994 RMK A01 T01980081  RH  047%=      5-min Rain = 0
KHO1 222244Z 17018KT 20/08 A2994 RMK A01 T01980082  RH  047%=      5-min Rain = 0
KHO1 222245Z 17015KT 20/08 A2994 RMK A01 T01970083  RH  048%=      5-min Rain = 0
KHO1 222246Z 16018KT 20/08 A2994 RMK A01 T01980083  RH  047%=      5-min Rain = 0
KHO1 222247Z 17019KT 20/08 A2994 RMK A01 T01980081  RH  047%=      5-min Rain = 0
KHO1 222248Z 18017KT 20/08 A2994 RMK A01 T02000080  RH  046%=      5-min Rain = 0
KHO1 222249Z 18016KT 20/08 A2994 RMK A01 T02000075  RH  044%=      5-min Rain = 0
KHO1 222250Z 18016KT 20/07 A2994 RMK A01 T01980072  RH  044%=      5-min Rain = 0
KHO1 222251Z 18016KT 20/07 A2994 RMK A01 T01970073  RH  045%=      5-min Rain = 0
KHO1 222252Z 17012G19KT 20/07 A2994 RMK A01 T01970073  RH  045%=      5-min Rain = 0
KHO1 222253Z 17012KT 20/08 A2994 RMK A01 T01980075  RH  045%=      5-min Rain = 0
KHO1 222254Z 18014KT 20/07 A2994 RMK A01 T01980074  RH  044%=      5-min Rain = 0
KHO1 222255Z 17015KT 20/08 A2994 RMK A01 T01980075  RH  045%=      5-min Rain = 0
KHO1 222256Z 17013KT 20/08 A2994 RMK A01 T01970078  RH  046%=      5-min Rain = 0
KHO1 222257Z 18013KT 20/08 A2994 RMK A01 T01970080  RH  047%=      5-min Rain = 0
KHO1 222258Z 18016KT 20/08 A2994 RMK A01 T01970080  RH  047%=      5-min Rain = 0
KHO1 222259Z 18014KT 20/08 A2994 RMK A01 T01980080  RH  046%=      5-min Rain = 0
KHO1 222300Z 17013KT 20/08 A2994 RMK A01 T01990080  RH  046%=      5-min Rain = 0
KHO1 222301Z 17012KT 20/08 A2994 RMK A01 T02000080  RH  046%=      5-min Rain = 0
KHO1 222302Z 18015KT 20/08 A2994 RMK A01 T02010079  RH  045%=      5-min Rain = 0
KHO1 222303Z 18016KT 20/08 A2994 RMK A01 T02010079  RH  045%=      5-min Rain = 0
KHO1 222304Z 18013KT 20/08 A2994 RMK A01 T02000079  RH  045%=      5-min Rain = 0
KHO1 222305Z 18016KT 20/08 A2994 RMK A01 T02020079  RH  045%=      5-min Rain = 0
KHO1 222306Z 18014KT 20/08 A2994 RMK A01 T02010079  RH  045%=      5-min Rain = 0
KHO1 222307Z 19016KT 20/08 A2994 RMK A01 T02030077  RH  044%=      5-min Rain = 0
KHO1 222308Z 19015KT 20/08 A2994 RMK A01 T02020076  RH  044%=      5-min Rain = 0
KHO1 222309Z 18012KT 20/08 A2994 RMK A01 T02020077  RH  044%=      5-min Rain = 0
KHO1 222310Z 18014KT 20/08 A2994 RMK A01 T02020076  RH  044%=      5-min Rain = 0
KHO1 222311Z 17013KT 20/08 A2994 RMK A01 T02010076  RH  044%=      5-min Rain = 0
KHO1 222312Z 16014KT 20/08 A2994 RMK A01 T02000075  RH  044%=      5-min Rain = 0
KHO1 222313Z 17014KT 20/08 A2994 RMK A01 T02000075  RH  044%=      5-min Rain = 0
KHO1 222314Z 18014KT 20/08 A2994 RMK A01 T02000075  RH  044%=      5-min Rain = 0
KHO1 222315Z 19013KT 20/07 A2994 RMK A01 T01990074  RH  044%=      5-min Rain = 0
KHO1 222316Z 18013KT 20/08 A2994 RMK A01 T01990077  RH  045%=      5-min Rain = 0
KHO1 222317Z 19012KT 20/08 A2994 RMK A01 T01990079  RH  046%=      5-min Rain = 0
KHO1 222318Z 18014G19KT 20/08 A2994 RMK A01 T01990078  RH  046%=      5-min Rain = 0
KHO1 222319Z 19012KT 20/08 A2994 RMK A01 T01990078  RH  046%=      5-min Rain = 0
KHO1 222320Z 18011KT 20/08 A2994 RMK A01 T02000078  RH  045%=      5-min Rain = 0
KHO1 222321Z 17012KT 20/08 A2994 RMK A01 T02000078  RH  045%=      5-min Rain = 0
KHO1 222322Z 18013KT 20/08 A2994 RMK A01 T02000077  RH  045%=      5-min Rain = 0
KHO1 222323Z 18013KT 20/08 A2994 RMK A01 T02000077  RH  045%=      5-min Rain = 0
KHO1 222324Z 17014KT 20/08 A2994 RMK A01 T01990076  RH  045%=      5-min Rain = 0
KHO1 222325Z 17014KT 20/08 A2994 RMK A01 T01990076  RH  045%=      5-min Rain = 0
KHO1 222326Z 18014KT 20/07 A2994 RMK A01 T01980074  RH  045%=      5-min Rain = 0
KHO1 222327Z 18014KT 20/07 A2994 RMK A01 T01980074  RH  044%=      5-min Rain = 0
KHO1 222328Z 18015KT 20/08 A2994 RMK A01 T01980076  RH  045%=      5-min Rain = 0
KHO1 222329Z 18016KT 20/08 A2994 RMK A01 T01980077  RH  045%=      5-min Rain = 0
KHO1 222330Z 18013KT 20/08 A2994 RMK A01 T01980078  RH  046%=      5-min Rain = 0
KHO1 222331Z 17014KT 20/08 A2994 RMK A01 T01980077  RH  045%=      5-min Rain = 0
KHO1 222332Z 18013KT 20/08 A2993 RMK A01 T01980076  RH  045%=      5-min Rain = 0
KHO1 222333Z 17014KT 20/08 A2993 RMK A01 T01980075  RH  045%=      5-min Rain = 0
KHO1 222334Z 16013KT 20/08 A2993 RMK A01 T01980075  RH  045%=      5-min Rain = 0
KHO1 222335Z 16014KT 20/08 A2993 RMK A01 T01980075  RH  045%=      5-min Rain = 0
KHO1 222336Z 16014KT 20/08 A2993 RMK A01 T01980075  RH  045%=      5-min Rain = 0
KHO1 222337Z 16015KT 20/08 A2993 RMK A01 T01980077  RH  046%=      5-min Rain = 0
KHO1 222338Z 16018KT 20/08 A2993 RMK A01 T01980076  RH  045%=      5-min Rain = 0
KHO1 222339Z 18012KT 20/08 A2993 RMK A01 T01980077  RH  045%=      5-min Rain = 0
KHO1 222340Z 17014KT 20/08 A2993 RMK A01 T01980079  RH  046%=      5-min Rain = 0
KHO1 222341Z 17014KT 20/08 A2993 RMK A01 T01970080  RH  047%=      5-min Rain = 0
KHO1 222342Z 17014KT 20/08 A2993 RMK A01 T01970081  RH  047%=      5-min Rain = 0
KHO1 222343Z 16015KT 20/08 A2993 RMK A01 T01960080  RH  047%=      5-min Rain = 0
KHO1 222344Z 16014KT 20/08 A2993 RMK A01 T01960080  RH  047%=      5-min Rain = 0
KHO1 222345Z 17013KT 20/08 A2993 RMK A01 T01950080  RH  047%=      5-min Rain = 0
KHO1 222346Z 17012KT 20/08 A2993 RMK A01 T01960081  RH  047%=      5-min Rain = 0
KHO1 222347Z 17012KT 20/08 A2993 RMK A01 T01960081  RH  047%=      5-min Rain = 0
KHO1 222348Z 17012KT 20/08 A2993 RMK A01 T01970081  RH  047%=      5-min Rain = 0
KHO1 222349Z 17014KT 20/08 A2993 RMK A01 T01970080  RH  047%=      5-min Rain = 0
KHO1 222350Z 17013KT 20/08 A2993 RMK A01 T01990080  RH  046%=      5-min Rain = 0
KHO1 222351Z 17011KT 20/08 A2993 RMK A01 T02010079  RH  046%=      5-min Rain = 0
KHO1 222352Z 18012KT 20/08 A2993 RMK A01 T02010078  RH  045%=      5-min Rain = 0
KHO1 222353Z 18015KT 20/08 A2993 RMK A01 T02010077  RH  045%=      5-min Rain = 0
KHO1 222354Z 18012KT 20/08 A2993 RMK A01 T02000078  RH  045%=      5-min Rain = 0
KHO1 222355Z 17011KT 20/08 A2993 RMK A01 T02000079  RH  045%=      5-min Rain = 0
KHO1 222356Z 17012KT 20/08 A2993 RMK A01 T02000077  RH  045%=      5-min Rain = 0
KHO1 222357Z 17013KT 20/08 A2993 RMK A01 T02000075  RH  044%=      5-min Rain = 0
KHO1 222358Z 17014KT 20/08 A2993 RMK A01 T02000077  RH  045%=      5-min Rain = 0
KHO1 222359Z 17014KT 20/08 A2993 RMK A01 T02000077  RH  045%=      5-min Rain = 0
KHO1 230000Z 17016KT 20/08 A2993 RMK A01 T01990075  RH  045%=      5-min Rain = 0
KHO1 230001Z 17015KT 20/08 A2993 RMK A01 T01990075  RH  045%=      5-min Rain = 0
KHO1 230002Z 18014KT 20/08 A2993 RMK A01 T02000076  RH  045%=      5-min Rain = 0
KHO1 230003Z 18013KT 20/08 A2994 RMK A01 T02000075  RH  044%=      5-min Rain = 0
KHO1 230004Z 19014KT 20/07 A2994 RMK A01 T02000074  RH  044%=      5-min Rain = 0
KHO1 230005Z 18013KT 20/08 A2994 RMK A01 T02000075  RH  044%=      5-min Rain = 0
KHO1 230006Z 19014KT 20/07 A2993 RMK A01 T02000074  RH  044%=      5-min Rain = 0
KHO1 230007Z 18014KT 20/07 A2993 RMK A01 T02000071  RH  043%=      5-min Rain = 0
KHO1 230008Z 19014KT 20/07 A2993 RMK A01 T02000069  RH  043%=      5-min Rain = 0
KHO1 230009Z 19013KT 20/07 A2993 RMK A01 T02000069  RH  042%=      5-min Rain = 0
KHO1 230010Z 19012KT 20/07 A2994 RMK A01 T02000068  RH  042%=      5-min Rain = 0
KHO1 230011Z 18012KT 20/07 A2994 RMK A01 T02000070  RH  043%=      5-min Rain = 0
KHO1 230012Z 18011KT 20/07 A2994 RMK A01 T02000072  RH  044%=      5-min Rain = 0
KHO1 230013Z 18012KT 20/08 A2994 RMK A01 T01990076  RH  045%=      5-min Rain = 0
KHO1 230014Z 18015KT 20/08 A2994 RMK A01 T01980078  RH  046%=      5-min Rain = 0
KHO1 230015Z 18014KT 20/08 A2994 RMK A01 T01980079  RH  046%=      5-min Rain = 0
KHO1 230016Z 18015KT 20/08 A2994 RMK A01 T01970079  RH  046%=      5-min Rain = 0
KHO1 230017Z 18014KT 20/08 A2994 RMK A01 T01970080  RH  047%=      5-min Rain = 0
KHO1 230018Z 18013KT 20/08 A2994 RMK A01 T01970080  RH  047%=      5-min Rain = 0
KHO1 230019Z 17015KT 20/08 A2994 RMK A01 T01960080  RH  047%=      5-min Rain = 0
KHO1 230020Z 18013KT 20/08 A2994 RMK A01 T01960080  RH  047%=      5-min Rain = 0
KHO1 230021Z 17014KT 20/08 A2994 RMK A01 T01960079  RH  047%=      5-min Rain = 0
KHO1 230022Z 18015KT 20/08 A2994 RMK A01 T01960078  RH  047%=      5-min Rain = 0
KHO1 230023Z 18012KT 20/08 A2994 RMK A01 T01950078  RH  047%=      5-min Rain = 0
KHO1 230024Z 18013KT 20/08 A2994 RMK A01 T01950077  RH  046%=      5-min Rain = 0
KHO1 230025Z 18014KT 20/08 A2994 RMK A01 T01950076  RH  046%=      5-min Rain = 0
KHO1 230026Z 19013KT 19/08 A2994 RMK A01 T01940075  RH  046%=      5-min Rain = 0
KHO1 230027Z 18016KT 19/08 A2994 RMK A01 T01940075  RH  046%=      5-min Rain = 0
KHO1 230028Z 18015KT 19/08 A2994 RMK A01 T01940075  RH  046%=      5-min Rain = 0
KHO1 230029Z 18013KT 19/08 A2994 RMK A01 T01930075  RH  046%=      5-min Rain = 0
KHO1 230030Z 18013KT 19/08 A2994 RMK A01 T01930075  RH  046%=      5-min Rain = 0
KHO1 230031Z 18014KT 19/08 A2994 RMK A01 T01930075  RH  046%=      5-min Rain = 0
KHO1 230032Z 18010KT 19/08 A2994 RMK A01 T01920075  RH  046%=      5-min Rain = 0
KHO1 230033Z 18012KT 19/07 A2994 RMK A01 T01920074  RH  047%=      5-min Rain = 0
KHO1 230034Z 18012KT 19/07 A2994 RMK A01 T01920074  RH  046%=      5-min Rain = 0
KHO1 230035Z 18013KT 19/07 A2994 RMK A01 T01920074  RH  046%=      5-min Rain = 0
KHO1 230036Z 18012KT 19/07 A2994 RMK A01 T01920074  RH  047%=      5-min Rain = 0
KHO1 230037Z 18012KT 19/07 A2994 RMK A01 T01910074  RH  047%=      5-min Rain = 0
KHO1 230038Z 18011KT 19/08 A2994 RMK A01 T01910075  RH  047%=      5-min Rain = 0
KHO1 230039Z 18012KT 19/08 A2994 RMK A01 T01910076  RH  047%=      5-min Rain = 0
KHO1 230040Z 18011KT 19/08 A2994 RMK A01 T01900077  RH  048%=      5-min Rain = 0
KHO1 230041Z 18010KT 19/08 A2994 RMK A01 T01900078  RH  048%=      5-min Rain = 0
KHO1 230042Z 18009KT 19/08 A2994 RMK A01 T01890078  RH  049%=      5-min Rain = 0
KHO1 230043Z 18011KT 19/08 A2994 RMK A01 T01880079  RH  049%=      5-min Rain = 0
KHO1 230044Z 18010KT 19/08 A2995 RMK A01 T01880080  RH  049%=      5-min Rain = 0
KHO1 230045Z 18012KT 19/08 A2995 RMK A01 T01880080  RH  050%=      5-min Rain = 0
KHO1 230046Z 18010KT 19/08 A2995 RMK A01 T01870080  RH  050%=      5-min Rain = 0
KHO1 230047Z 18011KT 19/08 A2995 RMK A01 T01870080  RH  050%=      5-min Rain = 0
KHO1 230048Z 18011KT 19/08 A2995 RMK A01 T01870080  RH  050%=      5-min Rain = 0
KHO1 230049Z 18011KT 19/08 A2995 RMK A01 T01870080  RH  050%=      5-min Rain = 0
KHO1 230050Z 18011KT 19/08 A2995 RMK A01 T01860080  RH  050%=      5-min Rain = 0
KHO1 230051Z 17010KT 19/08 A2995 RMK A01 T01860081  RH  050%=      5-min Rain = 0
KHO1 230052Z 18010KT 19/08 A2995 RMK A01 T01860081  RH  050%=      5-min Rain = 0
KHO1 230053Z 18011KT 19/08 A2995 RMK A01 T01850081  RH  050%=      5-min Rain = 0
KHO1 230054Z 18010KT 19/08 A2995 RMK A01 T01850081  RH  051%=      5-min Rain = 0
KHO1 230055Z 18010KT 19/08 A2995 RMK A01 T01850081  RH  051%=      5-min Rain = 0
KHO1 230056Z 18010KT 18/08 A2995 RMK A01 T01840081  RH  051%=      5-min Rain = 0
KHO1 230057Z 17009KT 18/08 A2995 RMK A01 T01830082  RH  052%=      5-min Rain = 0
KHO1 230058Z 17011KT 18/08 A2995 RMK A01 T01830084  RH  052%=      5-min Rain = 0
KHO1 230059Z 17009KT 18/09 A2995 RMK A01 T01830085  RH  053%=      5-min Rain = 0
KHO1 230100Z 17011KT 18/09 A2995 RMK A01 T01820086  RH  053%=      5-min Rain = 0
KHO1 230101Z 17011KT 18/09 A2994 RMK A01 T01820088  RH  054%=      5-min Rain = 0
KHO1 230102Z 17010KT 18/09 A2994 RMK A01 T01810088  RH  054%=      5-min Rain = 0
KHO1 230103Z 17011KT 18/09 A2995 RMK A01 T01810089  RH  055%=      5-min Rain = 0
KHO1 230104Z 17011KT 18/09 A2995 RMK A01 T01800091  RH  056%=      5-min Rain = 0
KHO1 230105Z 17012KT 18/09 A2995 RMK A01 T01800092  RH  056%=      5-min Rain = 0
KHO1 230106Z 17012KT 18/09 A2995 RMK A01 T01800093  RH  057%=      5-min Rain = 0
KHO1 230107Z 17012KT 18/09 A2995 RMK A01 T01800094  RH  057%=      5-min Rain = 0
KHO1 230108Z 17011KT 18/09 A2995 RMK A01 T01790094  RH  057%=      5-min Rain = 0
KHO1 230109Z 17011KT 18/09 A2995 RMK A01 T01790094  RH  058%=      5-min Rain = 0
KHO1 230110Z 17011KT 18/10 A2995 RMK A01 T01790095  RH  058%=      5-min Rain = 0
KHO1 230111Z 17013KT 18/10 A2995 RMK A01 T01780095  RH  058%=      5-min Rain = 0
KHO1 230112Z 17012KT 18/10 A2995 RMK A01 T01780095  RH  058%=      5-min Rain = 0
KHO1 230113Z 17012KT 18/10 A2995 RMK A01 T01780096  RH  059%=      5-min Rain = 0
KHO1 230114Z 17010KT 18/10 A2995 RMK A01 T01770096  RH  059%=      5-min Rain = 0
KHO1 230115Z 18012KT 18/10 A2995 RMK A01 T01770098  RH  060%=      5-min Rain = 0
KHO1 230116Z 17011KT 18/10 A2995 RMK A01 T01770098  RH  060%=      5-min Rain = 0
KHO1 230117Z 17011KT 18/10 A2995 RMK A01 T01760098  RH  060%=      5-min Rain = 0
KHO1 230118Z 18012KT 18/10 A2995 RMK A01 T01760099  RH  060%=      5-min Rain = 0
KHO1 230119Z 18012KT 18/10 A2995 RMK A01 T01760099  RH  061%=      5-min Rain = 0
KHO1 230120Z 18010KT 18/10 A2995 RMK A01 T01760099  RH  061%=      5-min Rain = 0
KHO1 230121Z 18009KT 18/10 A2995 RMK A01 T01750099  RH  061%=      5-min Rain = 0
KHO1 230122Z 18010KT 18/10 A2995 RMK A01 T01750100  RH  061%=      5-min Rain = 0
KHO1 230123Z 18010KT 18/10 A2995 RMK A01 T01750100  RH  062%=      5-min Rain = 0
KHO1 230124Z 18010KT 17/10 A2995 RMK A01 T01740100  RH  062%=      5-min Rain = 0
KHO1 230125Z 19009KT 17/10 A2995 RMK A01 T01730100  RH  062%=      5-min Rain = 0
KHO1 230126Z 19008KT 17/10 A2996 RMK A01 T01730100  RH  062%=      5-min Rain = 0
KHO1 230127Z 20009KT 17/10 A2995 RMK A01 T01720100  RH  062%=      5-min Rain = 0
KHO1 230128Z 20009KT 17/10 A2995 RMK A01 T01710100  RH  063%=      5-min Rain = 0
KHO1 230129Z 20009KT 17/10 A2996 RMK A01 T01710100  RH  063%=      5-min Rain = 0
KHO1 230130Z 20009KT 17/10 A2996 RMK A01 T01700100  RH  063%=      5-min Rain = 0
KHO1 230131Z 20009KT 17/10 A2996 RMK A01 T01700100  RH  064%=      5-min Rain = 0
KHO1 230132Z 19007KT 17/10 A2995 RMK A01 T01690100  RH  064%=      5-min Rain = 0
KHO1 230133Z 19008KT 17/10 A2995 RMK A01 T01680100  RH  064%=      5-min Rain = 0
KHO1 230134Z 19007KT 17/10 A2995 RMK A01 T01680100  RH  064%=      5-min Rain = 0
KHO1 230135Z 19008KT 17/10 A2995 RMK A01 T01670100  RH  065%=      5-min Rain = 0
KHO1 230136Z 18008KT 17/10 A2995 RMK A01 T01670101  RH  065%=      5-min Rain = 0
KHO1 230137Z 18007KT 17/10 A2995 RMK A01 T01670100  RH  065%=      5-min Rain = 0
KHO1 230138Z 18009KT 17/10 A2995 RMK A01 T01670101  RH  065%=      5-min Rain = 0
KHO1 230139Z 18010KT 17/10 A2996 RMK A01 T01670102  RH  066%=      5-min Rain = 0
KHO1 230140Z 18009KT 17/10 A2996 RMK A01 T01670102  RH  065%=      5-min Rain = 0
KHO1 230141Z 18009KT 17/10 A2996 RMK A01 T01670102  RH  066%=      5-min Rain = 0
KHO1 230142Z 18009KT 17/10 A2996 RMK A01 T01660102  RH  066%=      5-min Rain = 0
KHO1 230143Z 18009KT 17/10 A2996 RMK A01 T01660102  RH  066%=      5-min Rain = 0
KHO1 230144Z 18009KT 17/10 A2996 RMK A01 T01650102  RH  066%=      5-min Rain = 0
KHO1 230145Z 18010KT 17/10 A2996 RMK A01 T01660103  RH  066%=      5-min Rain = 0
KHO1 230146Z 18010KT 17/10 A2996 RMK A01 T01660103  RH  066%=      5-min Rain = 0
KHO1 230147Z 18012KT 17/10 A2996 RMK A01 T01660103  RH  066%=      5-min Rain = 0
KHO1 230148Z 18010KT 17/10 A2996 RMK A01 T01670103  RH  066%=      5-min Rain = 0
KHO1 230149Z 18010KT 17/10 A2996 RMK A01 T01660102  RH  066%=      5-min Rain = 0
KHO1 230150Z 18010KT 17/10 A2996 RMK A01 T01660103  RH  066%=      5-min Rain = 0
KHO1 230151Z 18009KT 17/10 A2996 RMK A01 T01660102  RH  066%=      5-min Rain = 0
KHO1 230152Z 18009KT 17/10 A2996 RMK A01 T01650102  RH  066%=      5-min Rain = 0
KHO1 230153Z 18009KT 17/10 A2996 RMK A01 T01650102  RH  067%=      5-min Rain = 0
KHO1 230154Z 18009KT 16/10 A2996 RMK A01 T01640102  RH  067%=      5-min Rain = 0
KHO1 230155Z 18010KT 16/10 A2996 RMK A01 T01640103  RH  067%=      5-min Rain = 0
KHO1 230156Z 18010KT 16/10 A2996 RMK A01 T01640103  RH  067%=      5-min Rain = 0
KHO1 230157Z 18010KT 17/10 A2996 RMK A01 T01650103  RH  067%=      5-min Rain = 0
KHO1 230158Z 18010KT 17/10 A2996 RMK A01 T01650103  RH  067%=      5-min Rain = 0
KHO1 230159Z 18010KT 16/10 A2996 RMK A01 T01640103  RH  067%=      5-min Rain = 0
KHO1 230200Z 18009KT 16/10 A2996 RMK A01 T01640102  RH  067%=      5-min Rain = 0
KHO1 230201Z 18008KT 16/10 A2996 RMK A01 T01640103  RH  067%=      5-min Rain = 0
KHO1 230202Z 18009KT 16/10 A2996 RMK A01 T01630103  RH  067%=      5-min Rain = 0
KHO1 230203Z 18009KT 16/10 A2996 RMK A01 T01630103  RH  067%=      5-min Rain = 0
KHO1 230204Z 18010KT 16/10 A2997 RMK A01 T01630103  RH  067%=      5-min Rain = 0
KHO1 230205Z 18008KT 16/10 A2997 RMK A01 T01630103  RH  068%=      5-min Rain = 0
KHO1 230206Z 18007KT 16/10 A2997 RMK A01 T01620102  RH  068%=      5-min Rain = 0
KHO1 230207Z 18007KT 16/10 A2997 RMK A01 T01610102  RH  068%=      5-min Rain = 0
KHO1 230208Z 19008KT 16/10 A2997 RMK A01 T01610102  RH  068%=      5-min Rain = 0
KHO1 230209Z 18009KT 16/10 A2997 RMK A01 T01620103  RH  068%=      5-min Rain = 0
KHO1 230210Z 17007KT 16/10 A2997 RMK A01 T01620102  RH  068%=      5-min Rain = 0
KHO1 230211Z 18007KT 16/10 A2997 RMK A01 T01610102  RH  068%=      5-min Rain = 0
KHO1 230212Z 18008KT 16/10 A2997 RMK A01 T01610102  RH  068%=      5-min Rain = 0
KHO1 230213Z 18007KT 16/10 A2997 RMK A01 T01610102  RH  068%=      5-min Rain = 0
KHO1 230214Z 18007KT 16/10 A2997 RMK A01 T01610102  RH  068%=      5-min Rain = 0
KHO1 230215Z 19008KT 16/10 A2998 RMK A01 T01600102  RH  068%=      5-min Rain = 0
KHO1 230216Z 19007KT 16/10 A2998 RMK A01 T01600102  RH  068%=      5-min Rain = 0
KHO1 230217Z 19006KT 16/10 A2998 RMK A01 T01600102  RH  069%=      5-min Rain = 0
KHO1 230218Z 19006KT 16/10 A2998 RMK A01 T01590102  RH  069%=      5-min Rain = 0
KHO1 230219Z 19005KT 16/10 A2998 RMK A01 T01590102  RH  069%=      5-min Rain = 0
KHO1 230220Z 19006KT 16/10 A2998 RMK A01 T01590102  RH  069%=      5-min Rain = 0
KHO1 230221Z 18005KT 16/10 A2998 RMK A01 T01590102  RH  069%=      5-min Rain = 0
KHO1 230222Z 17005KT 16/10 A2998 RMK A01 T01580102  RH  069%=      5-min Rain = 0
KHO1 230223Z 16005KT 16/10 A2998 RMK A01 T01580102  RH  069%=      5-min Rain = 0
KHO1 230224Z 17005KT 16/10 A2998 RMK A01 T01560101  RH  069%=      5-min Rain = 0
KHO1 230225Z 17005KT 16/10 A2998 RMK A01 T01560101  RH  070%=      5-min Rain = 0
KHO1 230226Z 17006KT 16/10 A2998 RMK A01 T01560102  RH  070%=      5-min Rain = 0
KHO1 230227Z 17005KT 16/10 A2998 RMK A01 T01560102  RH  070%=      5-min Rain = 0
KHO1 230228Z 18005KT 16/10 A2998 RMK A01 T01550101  RH  070%=      5-min Rain = 0
KHO1 230229Z 18005KT 15/10 A2999 RMK A01 T01540101  RH  070%=      5-min Rain = 0
KHO1 230230Z 18005KT 15/10 A2999 RMK A01 T01540101  RH  071%=      5-min Rain = 0
KHO1 230231Z 19005KT 15/10 A2999 RMK A01 T01540101  RH  071%=      5-min Rain = 0
KHO1 230232Z 19005KT 15/10 A2999 RMK A01 T01530101  RH  071%=      5-min Rain = 0
KHO1 230233Z 21005KT 15/10 A2999 RMK A01 T01530101  RH  071%=      5-min Rain = 0
KHO1 230234Z 22005KT 15/10 A2999 RMK A01 T01520100  RH  071%=      5-min Rain = 0
KHO1 230235Z 22005KT 15/10 A30 RMK A01 T01510100  RH  072%=      5-min Rain = 0
KHO1 230236Z 20006KT 15/10 A30 RMK A01 T01500100  RH  072%=      5-min Rain = 0
KHO1 230237Z 19007KT 15/10 A30 RMK A01 T01500101  RH  072%=      5-min Rain = 0
KHO1 230238Z 19007KT 15/10 A30 RMK A01 T01510102  RH  073%=      5-min Rain = 0
KHO1 230239Z 18008KT 15/10 A2999 RMK A01 T01520102  RH  072%=      5-min Rain = 0
KHO1 230240Z 17010KT 15/10 A2999 RMK A01 T01520102  RH  072%=      5-min Rain = 0
KHO1 230241Z 16010KT 15/10 A2999 RMK A01 T01520102  RH  072%=      5-min Rain = 0
KHO1 230242Z 16010KT 15/10 A2999 RMK A01 T01520102  RH  072%=      5-min Rain = 0
KHO1 230243Z 16011KT 15/10 A2999 RMK A01 T01520102  RH  072%=      5-min Rain = 0
KHO1 230244Z 17009KT 15/10 A2999 RMK A01 T01520103  RH  072%=      5-min Rain = 0
KHO1 230245Z 19009KT 15/10 A30 RMK A01 T01530103  RH  072%=      5-min Rain = 0
KHO1 230246Z 20008KT 15/10 A30 RMK A01 T01530103  RH  072%=      5-min Rain = 0
KHO1 230247Z 21007KT 15/10 A30 RMK A01 T01530103  RH  072%=      5-min Rain = 0
KHO1 230248Z 22007KT 15/10 A30 RMK A01 T01520102  RH  072%=      5-min Rain = 0
KHO1 230249Z 21007KT 15/10 A30 RMK A01 T01520102  RH  072%=      5-min Rain = 0
KHO1 230250Z 22006KT 15/10 A30 RMK A01 T01520102  RH  072%=      5-min Rain = 0
KHO1 230251Z 21006KT 15/10 A30 RMK A01 T01510102  RH  072%=      5-min Rain = 0
KHO1 230252Z 21007KT 15/10 A30 RMK A01 T01510102  RH  072%=      5-min Rain = 0
KHO1 230253Z 21008KT 15/10 A30 RMK A01 T01510102  RH  073%=      5-min Rain = 0
KHO1 230254Z 22007KT 15/10 A30 RMK A01 T01510102  RH  073%=      5-min Rain = 0
KHO1 230255Z 21007KT 15/10 A30 RMK A01 T01500102  RH  073%=      5-min Rain = 0
KHO1 230256Z 21007KT 15/10 A30 RMK A01 T01500102  RH  073%=      5-min Rain = 0
KHO1 230257Z 20007KT 15/10 A30 RMK A01 T01490102  RH  073%=      5-min Rain = 0
KHO1 230258Z 20007KT 15/10 A30 RMK A01 T01490102  RH  073%=      5-min Rain = 0
KHO1 230259Z 20006KT 15/10 A30 RMK A01 T01490102  RH  073%=      5-min Rain = 0
KHO1 230300Z 19006KT 15/10 A30 RMK A01 T01490102  RH  073%=      5-min Rain = 0
KHO1 230301Z 19005KT 15/10 A30 RMK A01 T01480101  RH  073%=      5-min Rain = 0
KHO1 230302Z 19007KT 15/10 A30 RMK A01 T01480101  RH  074%=      5-min Rain = 0
KHO1 230303Z 19008KT 15/10 A3001 RMK A01 T01470101  RH  074%=      5-min Rain = 0
KHO1 230304Z 19008KT 15/10 A3001 RMK A01 T01470102  RH  074%=      5-min Rain = 0
KHO1 230305Z 18009KT 15/10 A30 RMK A01 T01480103  RH  074%=      5-min Rain = 0
KHO1 230306Z 18008KT 15/10 A30 RMK A01 T01500103  RH  074%=      5-min Rain = 0
KHO1 230307Z 17010KT 15/10 A30 RMK A01 T01500103  RH  073%=      5-min Rain = 0
KHO1 230308Z 17010KT 15/10 A30 RMK A01 T01500103  RH  073%=      5-min Rain = 0
KHO1 230309Z 17014KT 15/10 A30 RMK A01 T01510103  RH  073%=      5-min Rain = 0
KHO1 230310Z 18013KT 15/10 A30 RMK A01 T01520104  RH  073%=      5-min Rain = 0
KHO1 230311Z 18013KT 15/10 A3001 RMK A01 T01530104  RH  073%=      5-min Rain = 0
KHO1 230312Z 18012KT 15/10 A3001 RMK A01 T01520103  RH  072%=      5-min Rain = 0
KHO1 230313Z 17012KT 15/10 A3001 RMK A01 T01520103  RH  073%=      5-min Rain = 0
KHO1 230314Z 18011KT 15/10 A3001 RMK A01 T01510103  RH  073%=      5-min Rain = 0
KHO1 230315Z 17011KT 15/10 A3001 RMK A01 T01510103  RH  073%=      5-min Rain = 0
KHO1 230316Z 17011KT 15/10 A3001 RMK A01 T01510103  RH  073%=      5-min Rain = 0
KHO1 230317Z 18011KT 15/10 A3001 RMK A01 T01510103  RH  073%=      5-min Rain = 0
KHO1 230318Z 18011KT 15/10 A3001 RMK A01 T01500103  RH  073%=      5-min Rain = 0
KHO1 230319Z 18009KT 15/10 A3001 RMK A01 T01500103  RH  073%=      5-min Rain = 0
KHO1 230320Z 18008KT 15/10 A3001 RMK A01 T01490102  RH  073%=      5-min Rain = 0
KHO1 230321Z 18009KT 15/10 A3001 RMK A01 T01490102  RH  074%=      5-min Rain = 0
KHO1 230322Z 18010KT 15/10 A3001 RMK A01 T01490102  RH  074%=      5-min Rain = 0
KHO1 230323Z 18009KT 15/10 A3001 RMK A01 T01480102  RH  074%=      5-min Rain = 0
KHO1 230324Z 18009KT 15/10 A3001 RMK A01 T01480102  RH  074%=      5-min Rain = 0
KHO1 230325Z 18008KT 15/10 A3001 RMK A01 T01470102  RH  074%=      5-min Rain = 0
KHO1 230326Z 18009KT 15/10 A3001 RMK A01 T01470102  RH  074%=      5-min Rain = 0
KHO1 230327Z 18008KT 15/10 A3001 RMK A01 T01470103  RH  075%=      5-min Rain = 0
KHO1 230328Z 18008KT 15/10 A3001 RMK A01 T01470102  RH  074%=      5-min Rain = 0
KHO1 230329Z 18008KT 15/10 A3001 RMK A01 T01460102  RH  075%=      5-min Rain = 0
KHO1 230330Z 18008KT 15/10 A3001 RMK A01 T01450102  RH  075%=      5-min Rain = 0
KHO1 230331Z 18009KT 15/10 A3001 RMK A01 T01450102  RH  075%=      5-min Rain = 0
KHO1 230332Z 18010KT 15/10 A3001 RMK A01 T01450102  RH  075%=      5-min Rain = 0
KHO1 230333Z 18010KT 14/10 A3002 RMK A01 T01440102  RH  076%=      5-min Rain = 0
KHO1 230334Z 18010KT 14/10 A3002 RMK A01 T01440102  RH  076%=      5-min Rain = 0
KHO1 230335Z 18009KT 14/10 A3002 RMK A01 T01440102  RH  076%=      5-min Rain = 0
KHO1 230336Z 18010KT 14/10 A3002 RMK A01 T01440102  RH  076%=      5-min Rain = 0
KHO1 230337Z 19010KT 14/10 A3001 RMK A01 T01440102  RH  076%=      5-min Rain = 0
KHO1 230338Z 19008KT 14/10 A3001 RMK A01 T01440102  RH  076%=      5-min Rain = 0
KHO1 230339Z 18008KT 14/10 A3001 RMK A01 T01430101  RH  076%=      5-min Rain = 0
KHO1 230340Z 18009KT 14/10 A3001 RMK A01 T01430102  RH  077%=      5-min Rain = 0
KHO1 230341Z 18008KT 14/10 A3001 RMK A01 T01430102  RH  076%=      5-min Rain = 0
KHO1 230342Z 19008KT 14/10 A3001 RMK A01 T01430102  RH  077%=      5-min Rain = 0
KHO1 230343Z 19010KT 14/10 A3001 RMK A01 T01430102  RH  077%=      5-min Rain = 0
KHO1 230344Z 19011KT 14/10 A3002 RMK A01 T01430103  RH  077%=      5-min Rain = 0
KHO1 230345Z 19009KT 14/10 A3002 RMK A01 T01430102  RH  076%=      5-min Rain = 0
KHO1 230346Z 18009KT 14/10 A3002 RMK A01 T01420102  RH  077%=      5-min Rain = 0
KHO1 230347Z 18010KT 14/10 A3002 RMK A01 T01420102  RH  077%=      5-min Rain = 0
KHO1 230348Z 18010KT 14/10 A3002 RMK A01 T01420102  RH  077%=      5-min Rain = 0
KHO1 230349Z 19010KT 14/10 A3002 RMK A01 T01430102  RH  077%=      5-min Rain = 0
KHO1 230350Z 19009KT 14/10 A3002 RMK A01 T01420102  RH  077%=      5-min Rain = 0
KHO1 230351Z 18009KT 14/10 A3002 RMK A01 T01420102  RH  077%=      5-min Rain = 0
KHO1 230352Z 18009KT 14/10 A3002 RMK A01 T01410102  RH  077%=      5-min Rain = 0
KHO1 230353Z 18008KT 14/10 A3002 RMK A01 T01410102  RH  077%=      5-min Rain = 0
KHO1 230354Z 18009KT 14/10 A3002 RMK A01 T01410102  RH  077%=      5-min Rain = 0
KHO1 230355Z 18011KT 14/10 A3002 RMK A01 T01410102  RH  077%=      5-min Rain = 0
KHO1 230356Z 18011KT 14/10 A3002 RMK A01 T01410102  RH  077%=      5-min Rain = 0
KHO1 230357Z 18010KT 14/10 A3001 RMK A01 T01410102  RH  078%=      5-min Rain = 0
KHO1 230358Z 18010KT 14/10 A3001 RMK A01 T01400102  RH  077%=      5-min Rain = 0
KHO1 230359Z 18010KT 14/10 A3001 RMK A01 T01400102  RH  078%=      5-min Rain = 0
KHO1 230400Z 18010KT 14/10 A3001 RMK A01 T01400102  RH  078%=      5-min Rain = 0
KHO1 230401Z 18010KT 14/10 A3001 RMK A01 T01400102  RH  078%=      5-min Rain = 0
KHO1 230402Z 18009KT 14/10 A3001 RMK A01 T01390101  RH  078%=      5-min Rain = 0
KHO1 230403Z 17010KT 14/10 A3001 RMK A01 T01380101  RH  078%=      5-min Rain = 0
KHO1 230404Z 17009KT 14/10 A3001 RMK A01 T01380101  RH  078%=      5-min Rain = 0
KHO1 230405Z 18009KT 14/10 A3001 RMK A01 T01370101  RH  079%=      5-min Rain = 0
KHO1 230406Z 18009KT 14/10 A3001 RMK A01 T01370101  RH  079%=      5-min Rain = 0
KHO1 230407Z 18009KT 14/10 A3002 RMK A01 T01370101  RH  079%=      5-min Rain = 0
KHO1 230408Z 18009KT 14/10 A3001 RMK A01 T01370101  RH  079%=      5-min Rain = 0
KHO1 230409Z 18010KT 14/10 A3001 RMK A01 T01370101  RH  079%=      5-min Rain = 0
KHO1 230410Z 18011KT 14/10 A3001 RMK A01 T01370102  RH  079%=      5-min Rain = 0
KHO1 230411Z 18010KT 14/10 A3001 RMK A01 T01370102  RH  079%=      5-min Rain = 0
KHO1 230412Z 18009KT 14/10 A3002 RMK A01 T01370101  RH  079%=      5-min Rain = 0
KHO1 230413Z 19009KT 14/10 A3002 RMK A01 T01360101  RH  079%=      5-min Rain = 0
KHO1 230414Z 19009KT 14/10 A3002 RMK A01 T01360101  RH  079%=      5-min Rain = 0
KHO1 230415Z 19008KT 14/10 A3002 RMK A01 T01360101  RH  079%=      5-min Rain = 0
KHO1 230416Z 19008KT 14/10 A3002 RMK A01 T01350100  RH  079%=      5-min Rain = 0
KHO1 230417Z 19008KT 14/10 A3002 RMK A01 T01350100  RH  080%=      5-min Rain = 0
KHO1 230418Z 19007KT 13/10 A3002 RMK A01 T01340100  RH  080%=      5-min Rain = 0
KHO1 230419Z 19008KT 13/10 A3002 RMK A01 T01340100  RH  080%=      5-min Rain = 0
KHO1 230420Z 19008KT 13/10 A3002 RMK A01 T01340100  RH  080%=      5-min Rain = 0
KHO1 230421Z 20008KT 13/10 A3002 RMK A01 T01340100  RH  080%=      5-min Rain = 0
KHO1 230422Z 19008KT 13/10 A3002 RMK A01 T01330100  RH  080%=      5-min Rain = 0
KHO1 230423Z 19008KT 13/10 A3002 RMK A01 T01320100  RH  081%=      5-min Rain = 0
KHO1 230424Z 19008KT 13/10 A3002 RMK A01 T01320099  RH  081%=      5-min Rain = 0
KHO1 230425Z 19007KT 13/10 A3002 RMK A01 T01310099  RH  081%=      5-min Rain = 0
KHO1 230426Z 20008KT 13/10 A3002 RMK A01 T01300099  RH  081%=      5-min Rain = 0
KHO1 230427Z 19008KT 13/10 A3002 RMK A01 T01300099  RH  081%=      5-min Rain = 0
KHO1 230428Z 19008KT 13/10 A3002 RMK A01 T01290099  RH  082%=      5-min Rain = 0
KHO1 230429Z 19008KT 13/10 A3002 RMK A01 T01290099  RH  082%=      5-min Rain = 0
KHO1 230430Z 19007KT 13/10 A3002 RMK A01 T01290099  RH  082%=      5-min Rain = 0
KHO1 230431Z 19006KT 13/10 A3001 RMK A01 T01290099  RH  082%=      5-min Rain = 0
KHO1 230432Z 19007KT 13/10 A3001 RMK A01 T01290099  RH  082%=      5-min Rain = 0
KHO1 230433Z 18007KT 13/10 A3001 RMK A01 T01280098  RH  082%=      5-min Rain = 0
KHO1 230434Z 18007KT 13/10 A3001 RMK A01 T01280099  RH  082%=      5-min Rain = 0
KHO1 230435Z 18009KT 13/10 A3001 RMK A01 T01290100  RH  083%=      5-min Rain = 0
KHO1 230436Z 18010KT 13/10 A3001 RMK A01 T01300101  RH  082%=      5-min Rain = 0
KHO1 230437Z 18010KT 13/10 A3001 RMK A01 T01310101  RH  082%=      5-min Rain = 0
KHO1 230438Z 18009KT 13/10 A3001 RMK A01 T01320101  RH  082%=      5-min Rain = 0
KHO1 230439Z 18008KT 13/10 A3001 RMK A01 T01310100  RH  081%=      5-min Rain = 0
KHO1 230440Z 19009KT 13/10 A3002 RMK A01 T01310100  RH  081%=      5-min Rain = 0
KHO1 230441Z 19008KT 13/10 A3002 RMK A01 T01300100  RH  082%=      5-min Rain = 0
KHO1 230442Z 19007KT 13/10 A3002 RMK A01 T01300100  RH  082%=      5-min Rain = 0
KHO1 230443Z 19006KT 13/10 A3002 RMK A01 T01290099  RH  082%=      5-min Rain = 0
KHO1 230444Z 19008KT 13/10 A3002 RMK A01 T01290099  RH  082%=      5-min Rain = 0
KHO1 230445Z 19008KT 13/10 A3002 RMK A01 T01290099  RH  082%=      5-min Rain = 0
KHO1 230446Z 19008KT 13/10 A3002 RMK A01 T01290100  RH  082%=      5-min Rain = 0
KHO1 230447Z 19007KT 13/10 A3002 RMK A01 T01280099  RH  082%=      5-min Rain = 0
KHO1 230448Z 20008KT 13/10 A3002 RMK A01 T01280099  RH  083%=      5-min Rain = 0
KHO1 230449Z 19009KT 13/10 A3002 RMK A01 T01280100  RH  083%=      5-min Rain = 0
KHO1 230450Z 19008KT 13/10 A3002 RMK A01 T01280100  RH  083%=      5-min Rain = 0
KHO1 230451Z 19008KT 13/10 A3002 RMK A01 T01280100  RH  083%=      5-min Rain = 0
KHO1 230452Z 19008KT 13/10 A3002 RMK A01 T01280100  RH  083%=      5-min Rain = 0
KHO1 230453Z 19008KT 13/10 A3002 RMK A01 T01280100  RH  083%=      5-min Rain = 0
KHO1 230454Z 19007KT 13/10 A3002 RMK A01 T01270099  RH  083%=      5-min Rain = 0
KHO1 230455Z 20007KT 13/10 A3001 RMK A01 T01270099  RH  083%=      5-min Rain = 0
KHO1 230456Z 20006KT 13/10 A3002 RMK A01 T01270099  RH  083%=      5-min Rain = 0
KHO1 230457Z 20007KT 13/10 A3002 RMK A01 T01260099  RH  083%=      5-min Rain = 0
KHO1 230458Z 21006KT 13/10 A3002 RMK A01 T01260099  RH  083%=      5-min Rain = 0
KHO1 230459Z 21006KT 13/10 A3002 RMK A01 T01260099  RH  084%=      5-min Rain = 0

Page generated in 0.1468 seconds.